<?xml version="1.0" encoding="UTF-8" standalone="no" ?>
<gpx xmlns="http://www.topografix.com/GPX/1/1" xmlns:xsi="http://www.w3.org/2001/XMLSchema-instance" xsi:schemaLocation="http://www.topografix.com/GPX/1/1 http://www.topografix.com/GPX/1/1/gpx.xsd" version="1.1" creator="VisuGPX - https://www.visugpx.com">
  <metadata>
    <name>Berny sur Noye - 12km</name>
    <desc><![CDATA[Walkmeter Marche 18 nov. 2012 09:09:56]]></desc>
  </metadata>
  <trk>
    <name><![CDATA[Chemins en Somme]]></name>
    <trkseg>
      <trkpt lat="49.74594" lon="2.35342">
        <ele>52.1</ele>
        <time>2012-11-18T08:09:56Z</time>
      </trkpt>
      <trkpt lat="49.74596" lon="2.35338">
        <ele>43.4</ele>
        <time>2012-11-18T08:09:58Z</time>
      </trkpt>
      <trkpt lat="49.74605" lon="2.3532">
        <ele>48.1</ele>
        <time>2012-11-18T08:10:12Z</time>
      </trkpt>
      <trkpt lat="49.7461" lon="2.35301">
        <ele>46.8</ele>
        <time>2012-11-18T08:10:25Z</time>
      </trkpt>
      <trkpt lat="49.74614" lon="2.35276">
        <ele>45.8</ele>
        <time>2012-11-18T08:10:35Z</time>
      </trkpt>
      <trkpt lat="49.74621" lon="2.35257">
        <ele>41.1</ele>
        <time>2012-11-18T08:10:53Z</time>
      </trkpt>
      <trkpt lat="49.74627" lon="2.35236">
        <ele>30.2</ele>
        <time>2012-11-18T08:11:07Z</time>
      </trkpt>
      <trkpt lat="49.74632" lon="2.35215">
        <ele>31.4</ele>
        <time>2012-11-18T08:11:15Z</time>
      </trkpt>
      <trkpt lat="49.74634" lon="2.35194">
        <ele>34.9</ele>
        <time>2012-11-18T08:11:22Z</time>
      </trkpt>
      <trkpt lat="49.74639" lon="2.35173">
        <ele>38.9</ele>
        <time>2012-11-18T08:11:30Z</time>
      </trkpt>
      <trkpt lat="49.74644" lon="2.35154">
        <ele>43.5</ele>
        <time>2012-11-18T08:11:39Z</time>
      </trkpt>
      <trkpt lat="49.74648" lon="2.35131">
        <ele>49.6</ele>
        <time>2012-11-18T08:11:51Z</time>
      </trkpt>
      <trkpt lat="49.74651" lon="2.3511">
        <ele>52.4</ele>
        <time>2012-11-18T08:12:01Z</time>
      </trkpt>
      <trkpt lat="49.74655" lon="2.35086">
        <ele>50</ele>
        <time>2012-11-18T08:12:11Z</time>
      </trkpt>
      <trkpt lat="49.74661" lon="2.35066">
        <ele>47</ele>
        <time>2012-11-18T08:12:28Z</time>
      </trkpt>
      <trkpt lat="49.74677" lon="2.35067">
        <ele>52.1</ele>
        <time>2012-11-18T08:12:39Z</time>
      </trkpt>
      <trkpt lat="49.74692" lon="2.35072">
        <ele>46.1</ele>
        <time>2012-11-18T08:12:54Z</time>
      </trkpt>
      <trkpt lat="49.74706" lon="2.35082">
        <ele>40.5</ele>
        <time>2012-11-18T08:13:09Z</time>
      </trkpt>
      <trkpt lat="49.74719" lon="2.35092">
        <ele>35.7</ele>
        <time>2012-11-18T08:13:19Z</time>
      </trkpt>
      <trkpt lat="49.74731" lon="2.35102">
        <ele>39.3</ele>
        <time>2012-11-18T08:13:30Z</time>
      </trkpt>
      <trkpt lat="49.74746" lon="2.35118">
        <ele>38.1</ele>
        <time>2012-11-18T08:13:44Z</time>
      </trkpt>
      <trkpt lat="49.74759" lon="2.3513">
        <ele>41.2</ele>
        <time>2012-11-18T08:13:58Z</time>
      </trkpt>
      <trkpt lat="49.74773" lon="2.35135">
        <ele>47.6</ele>
        <time>2012-11-18T08:14:07Z</time>
      </trkpt>
      <trkpt lat="49.74787" lon="2.35139">
        <ele>51.2</ele>
        <time>2012-11-18T08:14:18Z</time>
      </trkpt>
      <trkpt lat="49.74802" lon="2.35139">
        <ele>43.7</ele>
        <time>2012-11-18T08:14:31Z</time>
      </trkpt>
      <trkpt lat="49.74816" lon="2.35136">
        <ele>44.3</ele>
        <time>2012-11-18T08:14:44Z</time>
      </trkpt>
      <trkpt lat="49.74829" lon="2.35132">
        <ele>44.3</ele>
        <time>2012-11-18T08:14:53Z</time>
      </trkpt>
      <trkpt lat="49.74843" lon="2.35129">
        <ele>46.6</ele>
        <time>2012-11-18T08:15:05Z</time>
      </trkpt>
      <trkpt lat="49.74858" lon="2.35125">
        <ele>45</ele>
        <time>2012-11-18T08:15:16Z</time>
      </trkpt>
      <trkpt lat="49.74871" lon="2.3513">
        <ele>42.7</ele>
        <time>2012-11-18T08:15:29Z</time>
      </trkpt>
      <trkpt lat="49.74884" lon="2.35132">
        <ele>44.1</ele>
        <time>2012-11-18T08:15:46Z</time>
      </trkpt>
      <trkpt lat="49.74898" lon="2.35128">
        <ele>42.2</ele>
        <time>2012-11-18T08:15:55Z</time>
      </trkpt>
      <trkpt lat="49.74914" lon="2.35125">
        <ele>49.7</ele>
        <time>2012-11-18T08:16:13Z</time>
      </trkpt>
      <trkpt lat="49.74928" lon="2.35125">
        <ele>48.9</ele>
        <time>2012-11-18T08:16:22Z</time>
      </trkpt>
      <trkpt lat="49.7494" lon="2.35115">
        <ele>46</ele>
        <time>2012-11-18T08:16:43Z</time>
      </trkpt>
      <trkpt lat="49.74952" lon="2.35128">
        <ele>43.2</ele>
        <time>2012-11-18T08:16:54Z</time>
      </trkpt>
      <trkpt lat="49.74961" lon="2.35136">
        <ele>41.8</ele>
        <time>2012-11-18T08:17:02Z</time>
      </trkpt>
      <trkpt lat="49.74975" lon="2.3513">
        <ele>39.7</ele>
        <time>2012-11-18T08:17:18Z</time>
      </trkpt>
      <trkpt lat="49.74989" lon="2.35126">
        <ele>42.1</ele>
        <time>2012-11-18T08:17:31Z</time>
      </trkpt>
      <trkpt lat="49.75003" lon="2.3513">
        <ele>47</ele>
        <time>2012-11-18T08:17:37Z</time>
      </trkpt>
      <trkpt lat="49.75018" lon="2.35138">
        <ele>44.5</ele>
        <time>2012-11-18T08:17:43Z</time>
      </trkpt>
      <trkpt lat="49.75031" lon="2.35143">
        <ele>42.9</ele>
        <time>2012-11-18T08:17:49Z</time>
      </trkpt>
      <trkpt lat="49.75046" lon="2.3515">
        <ele>45.3</ele>
        <time>2012-11-18T08:17:58Z</time>
      </trkpt>
      <trkpt lat="49.7506" lon="2.35158">
        <ele>42.3</ele>
        <time>2012-11-18T08:18:07Z</time>
      </trkpt>
      <trkpt lat="49.75073" lon="2.35161">
        <ele>38.3</ele>
        <time>2012-11-18T08:18:22Z</time>
      </trkpt>
      <trkpt lat="49.75079" lon="2.35166">
        <ele>33.2</ele>
        <time>2012-11-18T08:18:28Z</time>
      </trkpt>
      <trkpt lat="49.75095" lon="2.35165">
        <ele>39.9</ele>
        <time>2012-11-18T08:18:47Z</time>
      </trkpt>
      <trkpt lat="49.75113" lon="2.35179">
        <ele>41</ele>
        <time>2012-11-18T08:18:59Z</time>
      </trkpt>
      <trkpt lat="49.7513" lon="2.35184">
        <ele>42.7</ele>
        <time>2012-11-18T08:19:20Z</time>
      </trkpt>
      <trkpt lat="49.75141" lon="2.352">
        <ele>44.9</ele>
        <time>2012-11-18T08:19:31Z</time>
      </trkpt>
      <trkpt lat="49.75158" lon="2.35208">
        <ele>41.1</ele>
        <time>2012-11-18T08:19:45Z</time>
      </trkpt>
      <trkpt lat="49.7517" lon="2.35216">
        <ele>35.4</ele>
        <time>2012-11-18T08:19:54Z</time>
      </trkpt>
      <trkpt lat="49.75183" lon="2.35224">
        <ele>37</ele>
        <time>2012-11-18T08:20:07Z</time>
      </trkpt>
      <trkpt lat="49.75196" lon="2.35231">
        <ele>37.7</ele>
        <time>2012-11-18T08:20:21Z</time>
      </trkpt>
      <trkpt lat="49.75209" lon="2.35238">
        <ele>35.8</ele>
        <time>2012-11-18T08:20:36Z</time>
      </trkpt>
      <trkpt lat="49.75223" lon="2.35246">
        <ele>40.4</ele>
        <time>2012-11-18T08:20:49Z</time>
      </trkpt>
      <trkpt lat="49.75237" lon="2.35254">
        <ele>40.1</ele>
        <time>2012-11-18T08:20:58Z</time>
      </trkpt>
      <trkpt lat="49.75251" lon="2.35257">
        <ele>36.6</ele>
        <time>2012-11-18T08:21:07Z</time>
      </trkpt>
      <trkpt lat="49.75264" lon="2.35263">
        <ele>33</ele>
        <time>2012-11-18T08:21:16Z</time>
      </trkpt>
      <trkpt lat="49.75277" lon="2.35272">
        <ele>35.6</ele>
        <time>2012-11-18T08:21:27Z</time>
      </trkpt>
      <trkpt lat="49.7529" lon="2.35279">
        <ele>34.3</ele>
        <time>2012-11-18T08:21:38Z</time>
      </trkpt>
      <trkpt lat="49.75304" lon="2.35285">
        <ele>35.7</ele>
        <time>2012-11-18T08:21:50Z</time>
      </trkpt>
      <trkpt lat="49.75319" lon="2.35291">
        <ele>39.8</ele>
        <time>2012-11-18T08:22:06Z</time>
      </trkpt>
      <trkpt lat="49.75333" lon="2.35295">
        <ele>34.6</ele>
        <time>2012-11-18T08:22:19Z</time>
      </trkpt>
      <trkpt lat="49.75346" lon="2.35299">
        <ele>35.4</ele>
        <time>2012-11-18T08:22:30Z</time>
      </trkpt>
      <trkpt lat="49.75361" lon="2.35302">
        <ele>38</ele>
        <time>2012-11-18T08:22:36Z</time>
      </trkpt>
      <trkpt lat="49.75375" lon="2.35302">
        <ele>41.3</ele>
        <time>2012-11-18T08:22:42Z</time>
      </trkpt>
      <trkpt lat="49.75389" lon="2.35306">
        <ele>49.4</ele>
        <time>2012-11-18T08:22:57Z</time>
      </trkpt>
      <trkpt lat="49.75402" lon="2.35312">
        <ele>53.9</ele>
        <time>2012-11-18T08:23:06Z</time>
      </trkpt>
      <trkpt lat="49.75417" lon="2.35309">
        <ele>53.9</ele>
        <time>2012-11-18T08:23:16Z</time>
      </trkpt>
      <trkpt lat="49.75431" lon="2.35305">
        <ele>49.1</ele>
        <time>2012-11-18T08:23:28Z</time>
      </trkpt>
      <trkpt lat="49.75445" lon="2.35303">
        <ele>42.9</ele>
        <time>2012-11-18T08:23:44Z</time>
      </trkpt>
      <trkpt lat="49.75459" lon="2.35298">
        <ele>47.2</ele>
        <time>2012-11-18T08:23:54Z</time>
      </trkpt>
      <trkpt lat="49.75472" lon="2.35288">
        <ele>46.6</ele>
        <time>2012-11-18T08:24:03Z</time>
      </trkpt>
      <trkpt lat="49.75482" lon="2.35284">
        <ele>43.4</ele>
        <time>2012-11-18T08:24:13Z</time>
      </trkpt>
      <trkpt lat="49.75485" lon="2.35262">
        <ele>36.4</ele>
        <time>2012-11-18T08:24:23Z</time>
      </trkpt>
      <trkpt lat="49.75477" lon="2.35243">
        <ele>43.2</ele>
        <time>2012-11-18T08:24:37Z</time>
      </trkpt>
      <trkpt lat="49.75469" lon="2.35225">
        <ele>35.4</ele>
        <time>2012-11-18T08:24:52Z</time>
      </trkpt>
      <trkpt lat="49.75459" lon="2.35206">
        <ele>38.4</ele>
        <time>2012-11-18T08:25:06Z</time>
      </trkpt>
      <trkpt lat="49.75459" lon="2.35181">
        <ele>36.8</ele>
        <time>2012-11-18T08:25:18Z</time>
      </trkpt>
      <trkpt lat="49.75459" lon="2.35181">
        <ele>36.8</ele>
        <time>2012-11-18T08:27:20Z</time>
      </trkpt>
      <trkpt lat="49.75461" lon="2.35169">
        <ele>35.3</ele>
        <time>2012-11-18T08:27:25Z</time>
      </trkpt>
      <trkpt lat="49.75475" lon="2.35171">
        <ele>35.1</ele>
        <time>2012-11-18T08:27:36Z</time>
      </trkpt>
      <trkpt lat="49.75489" lon="2.35164">
        <ele>33</ele>
        <time>2012-11-18T08:27:48Z</time>
      </trkpt>
      <trkpt lat="49.75501" lon="2.35156">
        <ele>34.4</ele>
        <time>2012-11-18T08:27:56Z</time>
      </trkpt>
      <trkpt lat="49.75513" lon="2.35145">
        <ele>36</ele>
        <time>2012-11-18T08:28:06Z</time>
      </trkpt>
      <trkpt lat="49.75524" lon="2.35123">
        <ele>41.9</ele>
        <time>2012-11-18T08:28:15Z</time>
      </trkpt>
      <trkpt lat="49.75536" lon="2.35109">
        <ele>50.8</ele>
        <time>2012-11-18T08:28:28Z</time>
      </trkpt>
      <trkpt lat="49.7555" lon="2.35101">
        <ele>55.2</ele>
        <time>2012-11-18T08:28:39Z</time>
      </trkpt>
      <trkpt lat="49.75564" lon="2.35092">
        <ele>52.4</ele>
        <time>2012-11-18T08:28:52Z</time>
      </trkpt>
      <trkpt lat="49.75576" lon="2.3508">
        <ele>48.9</ele>
        <time>2012-11-18T08:29:03Z</time>
      </trkpt>
      <trkpt lat="49.75589" lon="2.35069">
        <ele>49.7</ele>
        <time>2012-11-18T08:29:14Z</time>
      </trkpt>
      <trkpt lat="49.75602" lon="2.35061">
        <ele>49.1</ele>
        <time>2012-11-18T08:29:26Z</time>
      </trkpt>
      <trkpt lat="49.75614" lon="2.35051">
        <ele>47.4</ele>
        <time>2012-11-18T08:29:37Z</time>
      </trkpt>
      <trkpt lat="49.75624" lon="2.35034">
        <ele>54.3</ele>
        <time>2012-11-18T08:29:51Z</time>
      </trkpt>
      <trkpt lat="49.75637" lon="2.35015">
        <ele>59.8</ele>
        <time>2012-11-18T08:30:03Z</time>
      </trkpt>
      <trkpt lat="49.75637" lon="2.34994">
        <ele>53.9</ele>
        <time>2012-11-18T08:30:18Z</time>
      </trkpt>
      <trkpt lat="49.75628" lon="2.34978">
        <ele>56.6</ele>
        <time>2012-11-18T08:30:30Z</time>
      </trkpt>
      <trkpt lat="49.7562" lon="2.34961">
        <ele>55.5</ele>
        <time>2012-11-18T08:30:39Z</time>
      </trkpt>
      <trkpt lat="49.7562" lon="2.34939">
        <ele>58.8</ele>
        <time>2012-11-18T08:30:51Z</time>
      </trkpt>
      <trkpt lat="49.75624" lon="2.34917">
        <ele>54.9</ele>
        <time>2012-11-18T08:31:02Z</time>
      </trkpt>
      <trkpt lat="49.75627" lon="2.34895">
        <ele>57.3</ele>
        <time>2012-11-18T08:31:15Z</time>
      </trkpt>
      <trkpt lat="49.7563" lon="2.34872">
        <ele>58.2</ele>
        <time>2012-11-18T08:31:27Z</time>
      </trkpt>
      <trkpt lat="49.75632" lon="2.34851">
        <ele>59.6</ele>
        <time>2012-11-18T08:31:37Z</time>
      </trkpt>
      <trkpt lat="49.75635" lon="2.3483">
        <ele>62.1</ele>
        <time>2012-11-18T08:31:48Z</time>
      </trkpt>
      <trkpt lat="49.75638" lon="2.34808">
        <ele>63.7</ele>
        <time>2012-11-18T08:31:58Z</time>
      </trkpt>
      <trkpt lat="49.75639" lon="2.34786">
        <ele>60.8</ele>
        <time>2012-11-18T08:32:09Z</time>
      </trkpt>
      <trkpt lat="49.75641" lon="2.34763">
        <ele>57.2</ele>
        <time>2012-11-18T08:32:23Z</time>
      </trkpt>
      <trkpt lat="49.75642" lon="2.34742">
        <ele>64.7</ele>
        <time>2012-11-18T08:32:36Z</time>
      </trkpt>
      <trkpt lat="49.75642" lon="2.34715">
        <ele>63.2</ele>
        <time>2012-11-18T08:32:47Z</time>
      </trkpt>
      <trkpt lat="49.75639" lon="2.34693">
        <ele>60</ele>
        <time>2012-11-18T08:32:59Z</time>
      </trkpt>
      <trkpt lat="49.75638" lon="2.34672">
        <ele>58.1</ele>
        <time>2012-11-18T08:33:08Z</time>
      </trkpt>
      <trkpt lat="49.75639" lon="2.3465">
        <ele>56.9</ele>
        <time>2012-11-18T08:33:22Z</time>
      </trkpt>
      <trkpt lat="49.75645" lon="2.34629">
        <ele>59.2</ele>
        <time>2012-11-18T08:33:34Z</time>
      </trkpt>
      <trkpt lat="49.75648" lon="2.34608">
        <ele>56.8</ele>
        <time>2012-11-18T08:33:46Z</time>
      </trkpt>
      <trkpt lat="49.75657" lon="2.3459">
        <ele>56.8</ele>
        <time>2012-11-18T08:34:01Z</time>
      </trkpt>
      <trkpt lat="49.75668" lon="2.34576">
        <ele>60.9</ele>
        <time>2012-11-18T08:34:11Z</time>
      </trkpt>
      <trkpt lat="49.75679" lon="2.34563">
        <ele>62.3</ele>
        <time>2012-11-18T08:34:20Z</time>
      </trkpt>
      <trkpt lat="49.75686" lon="2.34544">
        <ele>63.4</ele>
        <time>2012-11-18T08:34:30Z</time>
      </trkpt>
      <trkpt lat="49.75691" lon="2.34523">
        <ele>59.8</ele>
        <time>2012-11-18T08:34:41Z</time>
      </trkpt>
      <trkpt lat="49.75699" lon="2.34506">
        <ele>56.7</ele>
        <time>2012-11-18T08:34:52Z</time>
      </trkpt>
      <trkpt lat="49.75705" lon="2.34487">
        <ele>63.1</ele>
        <time>2012-11-18T08:35:04Z</time>
      </trkpt>
      <trkpt lat="49.75714" lon="2.3447">
        <ele>61.2</ele>
        <time>2012-11-18T08:35:15Z</time>
      </trkpt>
      <trkpt lat="49.75723" lon="2.34455">
        <ele>61.2</ele>
        <time>2012-11-18T08:35:24Z</time>
      </trkpt>
      <trkpt lat="49.75732" lon="2.34438">
        <ele>60.9</ele>
        <time>2012-11-18T08:35:34Z</time>
      </trkpt>
      <trkpt lat="49.7574" lon="2.34421">
        <ele>61</ele>
        <time>2012-11-18T08:35:44Z</time>
      </trkpt>
      <trkpt lat="49.75749" lon="2.34405">
        <ele>60.5</ele>
        <time>2012-11-18T08:35:54Z</time>
      </trkpt>
      <trkpt lat="49.75758" lon="2.34389">
        <ele>60.5</ele>
        <time>2012-11-18T08:36:05Z</time>
      </trkpt>
      <trkpt lat="49.75766" lon="2.34371">
        <ele>61.5</ele>
        <time>2012-11-18T08:36:16Z</time>
      </trkpt>
      <trkpt lat="49.75775" lon="2.34353">
        <ele>62.4</ele>
        <time>2012-11-18T08:36:26Z</time>
      </trkpt>
      <trkpt lat="49.75783" lon="2.34335">
        <ele>63.5</ele>
        <time>2012-11-18T08:36:37Z</time>
      </trkpt>
      <trkpt lat="49.75787" lon="2.34314">
        <ele>64.5</ele>
        <time>2012-11-18T08:36:48Z</time>
      </trkpt>
      <trkpt lat="49.75788" lon="2.34292">
        <ele>65.5</ele>
        <time>2012-11-18T08:36:59Z</time>
      </trkpt>
      <trkpt lat="49.75788" lon="2.34269">
        <ele>64.7</ele>
        <time>2012-11-18T08:37:08Z</time>
      </trkpt>
      <trkpt lat="49.75788" lon="2.34245">
        <ele>61.3</ele>
        <time>2012-11-18T08:37:18Z</time>
      </trkpt>
      <trkpt lat="49.7579" lon="2.34222">
        <ele>63.3</ele>
        <time>2012-11-18T08:37:32Z</time>
      </trkpt>
      <trkpt lat="49.7579" lon="2.342">
        <ele>58.3</ele>
        <time>2012-11-18T08:37:43Z</time>
      </trkpt>
      <trkpt lat="49.75791" lon="2.34178">
        <ele>56.2</ele>
        <time>2012-11-18T08:37:55Z</time>
      </trkpt>
      <trkpt lat="49.7579" lon="2.34157">
        <ele>59.4</ele>
        <time>2012-11-18T08:38:06Z</time>
      </trkpt>
      <trkpt lat="49.75789" lon="2.34134">
        <ele>57.3</ele>
        <time>2012-11-18T08:38:16Z</time>
      </trkpt>
      <trkpt lat="49.75787" lon="2.34111">
        <ele>59</ele>
        <time>2012-11-18T08:38:26Z</time>
      </trkpt>
      <trkpt lat="49.75787" lon="2.34089">
        <ele>60.4</ele>
        <time>2012-11-18T08:38:37Z</time>
      </trkpt>
      <trkpt lat="49.75787" lon="2.34063">
        <ele>60.6</ele>
        <time>2012-11-18T08:38:46Z</time>
      </trkpt>
      <trkpt lat="49.75787" lon="2.34041">
        <ele>57.8</ele>
        <time>2012-11-18T08:38:59Z</time>
      </trkpt>
      <trkpt lat="49.75787" lon="2.34018">
        <ele>55.6</ele>
        <time>2012-11-18T08:39:09Z</time>
      </trkpt>
      <trkpt lat="49.75786" lon="2.33996">
        <ele>57.4</ele>
        <time>2012-11-18T08:39:19Z</time>
      </trkpt>
      <trkpt lat="49.75787" lon="2.33975">
        <ele>62.7</ele>
        <time>2012-11-18T08:39:28Z</time>
      </trkpt>
      <trkpt lat="49.75789" lon="2.33952">
        <ele>65.6</ele>
        <time>2012-11-18T08:39:38Z</time>
      </trkpt>
      <trkpt lat="49.75792" lon="2.33931">
        <ele>65.5</ele>
        <time>2012-11-18T08:39:49Z</time>
      </trkpt>
      <trkpt lat="49.75798" lon="2.3391">
        <ele>61.6</ele>
        <time>2012-11-18T08:39:58Z</time>
      </trkpt>
      <trkpt lat="49.75804" lon="2.3389">
        <ele>59.7</ele>
        <time>2012-11-18T08:40:09Z</time>
      </trkpt>
      <trkpt lat="49.75808" lon="2.33869">
        <ele>59.6</ele>
        <time>2012-11-18T08:40:21Z</time>
      </trkpt>
      <trkpt lat="49.7581" lon="2.33845">
        <ele>59.4</ele>
        <time>2012-11-18T08:40:33Z</time>
      </trkpt>
      <trkpt lat="49.75815" lon="2.33825">
        <ele>59.3</ele>
        <time>2012-11-18T08:40:43Z</time>
      </trkpt>
      <trkpt lat="49.75819" lon="2.33803">
        <ele>54.7</ele>
        <time>2012-11-18T08:40:55Z</time>
      </trkpt>
      <trkpt lat="49.75821" lon="2.33782">
        <ele>52.8</ele>
        <time>2012-11-18T08:41:05Z</time>
      </trkpt>
      <trkpt lat="49.75822" lon="2.3376">
        <ele>55.3</ele>
        <time>2012-11-18T08:41:17Z</time>
      </trkpt>
      <trkpt lat="49.75824" lon="2.33739">
        <ele>57.8</ele>
        <time>2012-11-18T08:41:27Z</time>
      </trkpt>
      <trkpt lat="49.75824" lon="2.33717">
        <ele>60.1</ele>
        <time>2012-11-18T08:41:36Z</time>
      </trkpt>
      <trkpt lat="49.75825" lon="2.33695">
        <ele>61.4</ele>
        <time>2012-11-18T08:41:48Z</time>
      </trkpt>
      <trkpt lat="49.75824" lon="2.33672">
        <ele>59.6</ele>
        <time>2012-11-18T08:41:58Z</time>
      </trkpt>
      <trkpt lat="49.75824" lon="2.33649">
        <ele>64</ele>
        <time>2012-11-18T08:42:08Z</time>
      </trkpt>
      <trkpt lat="49.75825" lon="2.33627">
        <ele>58.8</ele>
        <time>2012-11-18T08:42:19Z</time>
      </trkpt>
      <trkpt lat="49.75826" lon="2.33604">
        <ele>60.3</ele>
        <time>2012-11-18T08:42:30Z</time>
      </trkpt>
      <trkpt lat="49.75831" lon="2.33584">
        <ele>62</ele>
        <time>2012-11-18T08:42:43Z</time>
      </trkpt>
      <trkpt lat="49.75833" lon="2.33562">
        <ele>63.4</ele>
        <time>2012-11-18T08:42:54Z</time>
      </trkpt>
      <trkpt lat="49.75834" lon="2.33541">
        <ele>62.2</ele>
        <time>2012-11-18T08:43:04Z</time>
      </trkpt>
      <trkpt lat="49.75837" lon="2.33518">
        <ele>61.6</ele>
        <time>2012-11-18T08:43:17Z</time>
      </trkpt>
      <trkpt lat="49.75839" lon="2.33497">
        <ele>63.3</ele>
        <time>2012-11-18T08:43:27Z</time>
      </trkpt>
      <trkpt lat="49.75839" lon="2.33474">
        <ele>64.7</ele>
        <time>2012-11-18T08:43:36Z</time>
      </trkpt>
      <trkpt lat="49.75841" lon="2.33452">
        <ele>64.3</ele>
        <time>2012-11-18T08:43:49Z</time>
      </trkpt>
      <trkpt lat="49.75844" lon="2.33428">
        <ele>63.6</ele>
        <time>2012-11-18T08:44:01Z</time>
      </trkpt>
      <trkpt lat="49.75846" lon="2.33406">
        <ele>67.9</ele>
        <time>2012-11-18T08:44:14Z</time>
      </trkpt>
      <trkpt lat="49.75849" lon="2.33384">
        <ele>63.9</ele>
        <time>2012-11-18T08:44:25Z</time>
      </trkpt>
      <trkpt lat="49.75854" lon="2.33363">
        <ele>64.7</ele>
        <time>2012-11-18T08:44:36Z</time>
      </trkpt>
      <trkpt lat="49.75858" lon="2.33343">
        <ele>65.5</ele>
        <time>2012-11-18T08:44:48Z</time>
      </trkpt>
      <trkpt lat="49.75861" lon="2.33322">
        <ele>66.2</ele>
        <time>2012-11-18T08:44:59Z</time>
      </trkpt>
      <trkpt lat="49.75864" lon="2.33301">
        <ele>66.9</ele>
        <time>2012-11-18T08:45:09Z</time>
      </trkpt>
      <trkpt lat="49.75868" lon="2.3328">
        <ele>66.6</ele>
        <time>2012-11-18T08:45:19Z</time>
      </trkpt>
      <trkpt lat="49.75869" lon="2.33259">
        <ele>64</ele>
        <time>2012-11-18T08:45:30Z</time>
      </trkpt>
      <trkpt lat="49.75872" lon="2.33238">
        <ele>66.4</ele>
        <time>2012-11-18T08:45:41Z</time>
      </trkpt>
      <trkpt lat="49.75874" lon="2.33213">
        <ele>67.5</ele>
        <time>2012-11-18T08:45:52Z</time>
      </trkpt>
      <trkpt lat="49.75879" lon="2.33192">
        <ele>69.3</ele>
        <time>2012-11-18T08:46:04Z</time>
      </trkpt>
      <trkpt lat="49.75884" lon="2.33172">
        <ele>66.2</ele>
        <time>2012-11-18T08:46:16Z</time>
      </trkpt>
      <trkpt lat="49.75888" lon="2.33151">
        <ele>68.5</ele>
        <time>2012-11-18T08:46:26Z</time>
      </trkpt>
      <trkpt lat="49.75894" lon="2.33131">
        <ele>68.5</ele>
        <time>2012-11-18T08:46:37Z</time>
      </trkpt>
      <trkpt lat="49.75899" lon="2.33111">
        <ele>68</ele>
        <time>2012-11-18T08:46:50Z</time>
      </trkpt>
      <trkpt lat="49.75905" lon="2.33092">
        <ele>68.8</ele>
        <time>2012-11-18T08:47:00Z</time>
      </trkpt>
      <trkpt lat="49.75911" lon="2.33072">
        <ele>68</ele>
        <time>2012-11-18T08:47:12Z</time>
      </trkpt>
      <trkpt lat="49.75924" lon="2.33063">
        <ele>70.6</ele>
        <time>2012-11-18T08:47:26Z</time>
      </trkpt>
      <trkpt lat="49.75938" lon="2.33061">
        <ele>75.6</ele>
        <time>2012-11-18T08:47:37Z</time>
      </trkpt>
      <trkpt lat="49.75952" lon="2.33055">
        <ele>71.5</ele>
        <time>2012-11-18T08:47:49Z</time>
      </trkpt>
      <trkpt lat="49.75965" lon="2.33047">
        <ele>71.5</ele>
        <time>2012-11-18T08:48:00Z</time>
      </trkpt>
      <trkpt lat="49.75978" lon="2.33038">
        <ele>73.8</ele>
        <time>2012-11-18T08:48:10Z</time>
      </trkpt>
      <trkpt lat="49.75987" lon="2.33023">
        <ele>71.3</ele>
        <time>2012-11-18T08:48:20Z</time>
      </trkpt>
      <trkpt lat="49.75997" lon="2.33006">
        <ele>72.6</ele>
        <time>2012-11-18T08:48:30Z</time>
      </trkpt>
      <trkpt lat="49.76003" lon="2.32986">
        <ele>74.3</ele>
        <time>2012-11-18T08:48:42Z</time>
      </trkpt>
      <trkpt lat="49.76009" lon="2.32962">
        <ele>71.4</ele>
        <time>2012-11-18T08:48:55Z</time>
      </trkpt>
      <trkpt lat="49.76014" lon="2.32943">
        <ele>76.1</ele>
        <time>2012-11-18T08:49:08Z</time>
      </trkpt>
      <trkpt lat="49.76019" lon="2.3292">
        <ele>77.7</ele>
        <time>2012-11-18T08:49:20Z</time>
      </trkpt>
      <trkpt lat="49.76023" lon="2.32898">
        <ele>74.7</ele>
        <time>2012-11-18T08:49:31Z</time>
      </trkpt>
      <trkpt lat="49.76025" lon="2.32876">
        <ele>79.3</ele>
        <time>2012-11-18T08:49:44Z</time>
      </trkpt>
      <trkpt lat="49.76025" lon="2.32854">
        <ele>82.4</ele>
        <time>2012-11-18T08:49:54Z</time>
      </trkpt>
      <trkpt lat="49.76028" lon="2.32834">
        <ele>82.8</ele>
        <time>2012-11-18T08:50:05Z</time>
      </trkpt>
      <trkpt lat="49.76031" lon="2.32812">
        <ele>81.3</ele>
        <time>2012-11-18T08:50:16Z</time>
      </trkpt>
      <trkpt lat="49.76035" lon="2.32791">
        <ele>82.9</ele>
        <time>2012-11-18T08:50:29Z</time>
      </trkpt>
      <trkpt lat="49.76036" lon="2.32769">
        <ele>84.4</ele>
        <time>2012-11-18T08:50:39Z</time>
      </trkpt>
      <trkpt lat="49.7604" lon="2.32748">
        <ele>83.4</ele>
        <time>2012-11-18T08:50:49Z</time>
      </trkpt>
      <trkpt lat="49.76044" lon="2.32728">
        <ele>82.5</ele>
        <time>2012-11-18T08:51:00Z</time>
      </trkpt>
      <trkpt lat="49.76048" lon="2.32708">
        <ele>82.9</ele>
        <time>2012-11-18T08:51:11Z</time>
      </trkpt>
      <trkpt lat="49.76053" lon="2.32687">
        <ele>85.8</ele>
        <time>2012-11-18T08:51:22Z</time>
      </trkpt>
      <trkpt lat="49.76056" lon="2.32665">
        <ele>88</ele>
        <time>2012-11-18T08:51:36Z</time>
      </trkpt>
      <trkpt lat="49.7606" lon="2.32645">
        <ele>89.5</ele>
        <time>2012-11-18T08:51:46Z</time>
      </trkpt>
      <trkpt lat="49.76065" lon="2.32623">
        <ele>85.7</ele>
        <time>2012-11-18T08:51:59Z</time>
      </trkpt>
      <trkpt lat="49.76069" lon="2.32602">
        <ele>86.7</ele>
        <time>2012-11-18T08:52:09Z</time>
      </trkpt>
      <trkpt lat="49.76072" lon="2.32581">
        <ele>86.4</ele>
        <time>2012-11-18T08:52:19Z</time>
      </trkpt>
      <trkpt lat="49.76074" lon="2.32559">
        <ele>87.4</ele>
        <time>2012-11-18T08:52:31Z</time>
      </trkpt>
      <trkpt lat="49.76078" lon="2.32537">
        <ele>89.9</ele>
        <time>2012-11-18T08:52:43Z</time>
      </trkpt>
      <trkpt lat="49.76083" lon="2.32516">
        <ele>91.5</ele>
        <time>2012-11-18T08:52:54Z</time>
      </trkpt>
      <trkpt lat="49.7609" lon="2.32495">
        <ele>92.1</ele>
        <time>2012-11-18T08:53:05Z</time>
      </trkpt>
      <trkpt lat="49.76097" lon="2.32473">
        <ele>91</ele>
        <time>2012-11-18T08:53:18Z</time>
      </trkpt>
      <trkpt lat="49.76105" lon="2.32456">
        <ele>93.9</ele>
        <time>2012-11-18T08:53:29Z</time>
      </trkpt>
      <trkpt lat="49.76111" lon="2.32435">
        <ele>95</ele>
        <time>2012-11-18T08:53:41Z</time>
      </trkpt>
      <trkpt lat="49.76119" lon="2.32416">
        <ele>95.9</ele>
        <time>2012-11-18T08:53:52Z</time>
      </trkpt>
      <trkpt lat="49.76128" lon="2.32386">
        <ele>98.2</ele>
        <time>2012-11-18T08:54:04Z</time>
      </trkpt>
      <trkpt lat="49.76128" lon="2.32386">
        <ele>98.2</ele>
        <time>2012-11-18T08:59:25Z</time>
      </trkpt>
      <trkpt lat="49.76131" lon="2.32375">
        <ele>99.5</ele>
        <time>2012-11-18T08:59:26Z</time>
      </trkpt>
      <trkpt lat="49.76133" lon="2.32354">
        <ele>101.7</ele>
        <time>2012-11-18T08:59:36Z</time>
      </trkpt>
      <trkpt lat="49.76134" lon="2.32328">
        <ele>98.4</ele>
        <time>2012-11-18T08:59:47Z</time>
      </trkpt>
      <trkpt lat="49.76135" lon="2.32306">
        <ele>100.2</ele>
        <time>2012-11-18T08:59:59Z</time>
      </trkpt>
      <trkpt lat="49.76137" lon="2.32283">
        <ele>100.4</ele>
        <time>2012-11-18T09:00:09Z</time>
      </trkpt>
      <trkpt lat="49.76137" lon="2.32261">
        <ele>98</ele>
        <time>2012-11-18T09:00:20Z</time>
      </trkpt>
      <trkpt lat="49.76148" lon="2.32246">
        <ele>99.5</ele>
        <time>2012-11-18T09:00:34Z</time>
      </trkpt>
      <trkpt lat="49.76162" lon="2.32246">
        <ele>101.1</ele>
        <time>2012-11-18T09:00:45Z</time>
      </trkpt>
      <trkpt lat="49.76176" lon="2.32245">
        <ele>102.5</ele>
        <time>2012-11-18T09:00:55Z</time>
      </trkpt>
      <trkpt lat="49.7619" lon="2.32245">
        <ele>105</ele>
        <time>2012-11-18T09:01:06Z</time>
      </trkpt>
      <trkpt lat="49.76204" lon="2.3225">
        <ele>107.3</ele>
        <time>2012-11-18T09:01:17Z</time>
      </trkpt>
      <trkpt lat="49.76218" lon="2.32253">
        <ele>107</ele>
        <time>2012-11-18T09:01:27Z</time>
      </trkpt>
      <trkpt lat="49.76232" lon="2.32254">
        <ele>107.1</ele>
        <time>2012-11-18T09:01:37Z</time>
      </trkpt>
      <trkpt lat="49.76247" lon="2.32253">
        <ele>108.3</ele>
        <time>2012-11-18T09:01:46Z</time>
      </trkpt>
      <trkpt lat="49.76262" lon="2.32253">
        <ele>108.6</ele>
        <time>2012-11-18T09:01:57Z</time>
      </trkpt>
      <trkpt lat="49.76276" lon="2.32256">
        <ele>106.9</ele>
        <time>2012-11-18T09:02:09Z</time>
      </trkpt>
      <trkpt lat="49.76291" lon="2.32255">
        <ele>104.7</ele>
        <time>2012-11-18T09:02:20Z</time>
      </trkpt>
      <trkpt lat="49.76305" lon="2.32252">
        <ele>109.9</ele>
        <time>2012-11-18T09:02:30Z</time>
      </trkpt>
      <trkpt lat="49.76318" lon="2.32245">
        <ele>113.2</ele>
        <time>2012-11-18T09:02:41Z</time>
      </trkpt>
      <trkpt lat="49.76328" lon="2.32229">
        <ele>111.8</ele>
        <time>2012-11-18T09:02:51Z</time>
      </trkpt>
      <trkpt lat="49.76333" lon="2.32209">
        <ele>110.3</ele>
        <time>2012-11-18T09:03:02Z</time>
      </trkpt>
      <trkpt lat="49.76338" lon="2.32188">
        <ele>110.8</ele>
        <time>2012-11-18T09:03:14Z</time>
      </trkpt>
      <trkpt lat="49.76341" lon="2.32164">
        <ele>111.6</ele>
        <time>2012-11-18T09:03:24Z</time>
      </trkpt>
      <trkpt lat="49.76344" lon="2.32143">
        <ele>112.5</ele>
        <time>2012-11-18T09:03:36Z</time>
      </trkpt>
      <trkpt lat="49.76347" lon="2.32121">
        <ele>113.3</ele>
        <time>2012-11-18T09:03:46Z</time>
      </trkpt>
      <trkpt lat="49.76351" lon="2.32101">
        <ele>114.6</ele>
        <time>2012-11-18T09:03:56Z</time>
      </trkpt>
      <trkpt lat="49.76354" lon="2.32078">
        <ele>116.1</ele>
        <time>2012-11-18T09:04:06Z</time>
      </trkpt>
      <trkpt lat="49.76357" lon="2.32057">
        <ele>117.5</ele>
        <time>2012-11-18T09:04:15Z</time>
      </trkpt>
      <trkpt lat="49.76359" lon="2.32034">
        <ele>118.4</ele>
        <time>2012-11-18T09:04:25Z</time>
      </trkpt>
      <trkpt lat="49.76362" lon="2.32013">
        <ele>116.2</ele>
        <time>2012-11-18T09:04:37Z</time>
      </trkpt>
      <trkpt lat="49.76365" lon="2.31992">
        <ele>118.2</ele>
        <time>2012-11-18T09:04:47Z</time>
      </trkpt>
      <trkpt lat="49.76368" lon="2.31971">
        <ele>119.3</ele>
        <time>2012-11-18T09:04:58Z</time>
      </trkpt>
      <trkpt lat="49.76371" lon="2.3195">
        <ele>119.3</ele>
        <time>2012-11-18T09:05:09Z</time>
      </trkpt>
      <trkpt lat="49.76374" lon="2.31929">
        <ele>116</ele>
        <time>2012-11-18T09:05:19Z</time>
      </trkpt>
      <trkpt lat="49.76377" lon="2.31907">
        <ele>118.2</ele>
        <time>2012-11-18T09:05:29Z</time>
      </trkpt>
      <trkpt lat="49.7638" lon="2.31886">
        <ele>120.3</ele>
        <time>2012-11-18T09:05:39Z</time>
      </trkpt>
      <trkpt lat="49.76383" lon="2.31865">
        <ele>121.3</ele>
        <time>2012-11-18T09:05:49Z</time>
      </trkpt>
      <trkpt lat="49.76385" lon="2.31844">
        <ele>122.2</ele>
        <time>2012-11-18T09:05:59Z</time>
      </trkpt>
      <trkpt lat="49.76388" lon="2.31824">
        <ele>123</ele>
        <time>2012-11-18T09:06:09Z</time>
      </trkpt>
      <trkpt lat="49.76391" lon="2.31804">
        <ele>123.9</ele>
        <time>2012-11-18T09:06:19Z</time>
      </trkpt>
      <trkpt lat="49.76394" lon="2.31782">
        <ele>124.4</ele>
        <time>2012-11-18T09:06:30Z</time>
      </trkpt>
      <trkpt lat="49.76397" lon="2.31761">
        <ele>127.7</ele>
        <time>2012-11-18T09:06:40Z</time>
      </trkpt>
      <trkpt lat="49.764" lon="2.31739">
        <ele>127.4</ele>
        <time>2012-11-18T09:06:51Z</time>
      </trkpt>
      <trkpt lat="49.76403" lon="2.31717">
        <ele>126.7</ele>
        <time>2012-11-18T09:07:01Z</time>
      </trkpt>
      <trkpt lat="49.76406" lon="2.31696">
        <ele>126</ele>
        <time>2012-11-18T09:07:11Z</time>
      </trkpt>
      <trkpt lat="49.7641" lon="2.31675">
        <ele>125.3</ele>
        <time>2012-11-18T09:07:21Z</time>
      </trkpt>
      <trkpt lat="49.76413" lon="2.31653">
        <ele>125.1</ele>
        <time>2012-11-18T09:07:31Z</time>
      </trkpt>
      <trkpt lat="49.76416" lon="2.31633">
        <ele>125.4</ele>
        <time>2012-11-18T09:07:41Z</time>
      </trkpt>
      <trkpt lat="49.76419" lon="2.31612">
        <ele>125.7</ele>
        <time>2012-11-18T09:07:51Z</time>
      </trkpt>
      <trkpt lat="49.76421" lon="2.31592">
        <ele>126</ele>
        <time>2012-11-18T09:08:01Z</time>
      </trkpt>
      <trkpt lat="49.76424" lon="2.3157">
        <ele>126.4</ele>
        <time>2012-11-18T09:08:12Z</time>
      </trkpt>
      <trkpt lat="49.76428" lon="2.31549">
        <ele>126.7</ele>
        <time>2012-11-18T09:08:23Z</time>
      </trkpt>
      <trkpt lat="49.76431" lon="2.31527">
        <ele>127</ele>
        <time>2012-11-18T09:08:33Z</time>
      </trkpt>
      <trkpt lat="49.76435" lon="2.31506">
        <ele>127.4</ele>
        <time>2012-11-18T09:08:44Z</time>
      </trkpt>
      <trkpt lat="49.76438" lon="2.31484">
        <ele>127.7</ele>
        <time>2012-11-18T09:08:54Z</time>
      </trkpt>
      <trkpt lat="49.76441" lon="2.31463">
        <ele>128</ele>
        <time>2012-11-18T09:09:04Z</time>
      </trkpt>
      <trkpt lat="49.76445" lon="2.31442">
        <ele>126.5</ele>
        <time>2012-11-18T09:09:14Z</time>
      </trkpt>
      <trkpt lat="49.76447" lon="2.3142">
        <ele>125</ele>
        <time>2012-11-18T09:09:24Z</time>
      </trkpt>
      <trkpt lat="49.76451" lon="2.314">
        <ele>123.7</ele>
        <time>2012-11-18T09:09:33Z</time>
      </trkpt>
      <trkpt lat="49.76453" lon="2.31379">
        <ele>122.7</ele>
        <time>2012-11-18T09:09:43Z</time>
      </trkpt>
      <trkpt lat="49.76456" lon="2.31358">
        <ele>125.7</ele>
        <time>2012-11-18T09:09:52Z</time>
      </trkpt>
      <trkpt lat="49.76459" lon="2.31336">
        <ele>130.6</ele>
        <time>2012-11-18T09:10:03Z</time>
      </trkpt>
      <trkpt lat="49.76463" lon="2.31315">
        <ele>126.7</ele>
        <time>2012-11-18T09:10:14Z</time>
      </trkpt>
      <trkpt lat="49.76469" lon="2.31295">
        <ele>123.7</ele>
        <time>2012-11-18T09:10:25Z</time>
      </trkpt>
      <trkpt lat="49.76479" lon="2.31278">
        <ele>126.8</ele>
        <time>2012-11-18T09:10:36Z</time>
      </trkpt>
      <trkpt lat="49.76489" lon="2.31263">
        <ele>125.7</ele>
        <time>2012-11-18T09:10:46Z</time>
      </trkpt>
      <trkpt lat="49.76499" lon="2.31247">
        <ele>129.6</ele>
        <time>2012-11-18T09:10:56Z</time>
      </trkpt>
      <trkpt lat="49.76509" lon="2.31232">
        <ele>130.3</ele>
        <time>2012-11-18T09:11:05Z</time>
      </trkpt>
      <trkpt lat="49.76519" lon="2.31216">
        <ele>127</ele>
        <time>2012-11-18T09:11:16Z</time>
      </trkpt>
      <trkpt lat="49.76528" lon="2.312">
        <ele>125.8</ele>
        <time>2012-11-18T09:11:26Z</time>
      </trkpt>
      <trkpt lat="49.76537" lon="2.31184">
        <ele>124.8</ele>
        <time>2012-11-18T09:11:35Z</time>
      </trkpt>
      <trkpt lat="49.76546" lon="2.31166">
        <ele>123.4</ele>
        <time>2012-11-18T09:11:48Z</time>
      </trkpt>
      <trkpt lat="49.76555" lon="2.31148">
        <ele>115.4</ele>
        <time>2012-11-18T09:12:02Z</time>
      </trkpt>
      <trkpt lat="49.76567" lon="2.31133">
        <ele>118.3</ele>
        <time>2012-11-18T09:12:12Z</time>
      </trkpt>
      <trkpt lat="49.76578" lon="2.31122">
        <ele>120.7</ele>
        <time>2012-11-18T09:12:20Z</time>
      </trkpt>
      <trkpt lat="49.76587" lon="2.31117">
        <ele>122.3</ele>
        <time>2012-11-18T09:12:28Z</time>
      </trkpt>
      <trkpt lat="49.76596" lon="2.31099">
        <ele>117.7</ele>
        <time>2012-11-18T09:12:40Z</time>
      </trkpt>
      <trkpt lat="49.76607" lon="2.31083">
        <ele>120.1</ele>
        <time>2012-11-18T09:12:50Z</time>
      </trkpt>
      <trkpt lat="49.76618" lon="2.3107">
        <ele>123.7</ele>
        <time>2012-11-18T09:13:00Z</time>
      </trkpt>
      <trkpt lat="49.76628" lon="2.31056">
        <ele>119.1</ele>
        <time>2012-11-18T09:13:10Z</time>
      </trkpt>
      <trkpt lat="49.76639" lon="2.31043">
        <ele>118.3</ele>
        <time>2012-11-18T09:13:20Z</time>
      </trkpt>
      <trkpt lat="49.76651" lon="2.31032">
        <ele>118.3</ele>
        <time>2012-11-18T09:13:30Z</time>
      </trkpt>
      <trkpt lat="49.76664" lon="2.31022">
        <ele>120.1</ele>
        <time>2012-11-18T09:13:39Z</time>
      </trkpt>
      <trkpt lat="49.76678" lon="2.31018">
        <ele>117.5</ele>
        <time>2012-11-18T09:13:52Z</time>
      </trkpt>
      <trkpt lat="49.76697" lon="2.31002">
        <ele>120.4</ele>
        <time>2012-11-18T09:14:07Z</time>
      </trkpt>
      <trkpt lat="49.76697" lon="2.31002">
        <ele>120.4</ele>
        <time>2012-11-18T09:20:39Z</time>
      </trkpt>
      <trkpt lat="49.767" lon="2.30987">
        <ele>120</ele>
        <time>2012-11-18T09:20:43Z</time>
      </trkpt>
      <trkpt lat="49.76698" lon="2.30965">
        <ele>120.1</ele>
        <time>2012-11-18T09:20:52Z</time>
      </trkpt>
      <trkpt lat="49.76695" lon="2.30943">
        <ele>121.1</ele>
        <time>2012-11-18T09:21:03Z</time>
      </trkpt>
      <trkpt lat="49.767" lon="2.30921">
        <ele>120.1</ele>
        <time>2012-11-18T09:21:16Z</time>
      </trkpt>
      <trkpt lat="49.76701" lon="2.309">
        <ele>119.3</ele>
        <time>2012-11-18T09:21:25Z</time>
      </trkpt>
      <trkpt lat="49.76698" lon="2.30879">
        <ele>118.5</ele>
        <time>2012-11-18T09:21:35Z</time>
      </trkpt>
      <trkpt lat="49.76697" lon="2.30858">
        <ele>121.4</ele>
        <time>2012-11-18T09:21:46Z</time>
      </trkpt>
      <trkpt lat="49.76698" lon="2.30835">
        <ele>116.7</ele>
        <time>2012-11-18T09:21:56Z</time>
      </trkpt>
      <trkpt lat="49.767" lon="2.30813">
        <ele>118</ele>
        <time>2012-11-18T09:22:08Z</time>
      </trkpt>
      <trkpt lat="49.767" lon="2.30791">
        <ele>114.9</ele>
        <time>2012-11-18T09:22:19Z</time>
      </trkpt>
      <trkpt lat="49.76699" lon="2.30769">
        <ele>116.7</ele>
        <time>2012-11-18T09:22:31Z</time>
      </trkpt>
      <trkpt lat="49.76698" lon="2.30745">
        <ele>116.1</ele>
        <time>2012-11-18T09:22:44Z</time>
      </trkpt>
      <trkpt lat="49.76698" lon="2.30723">
        <ele>113</ele>
        <time>2012-11-18T09:22:54Z</time>
      </trkpt>
      <trkpt lat="49.767" lon="2.30702">
        <ele>112.9</ele>
        <time>2012-11-18T09:23:04Z</time>
      </trkpt>
      <trkpt lat="49.76701" lon="2.30681">
        <ele>117.5</ele>
        <time>2012-11-18T09:23:15Z</time>
      </trkpt>
      <trkpt lat="49.76702" lon="2.30658">
        <ele>114.6</ele>
        <time>2012-11-18T09:23:26Z</time>
      </trkpt>
      <trkpt lat="49.76701" lon="2.30637">
        <ele>118.9</ele>
        <time>2012-11-18T09:23:36Z</time>
      </trkpt>
      <trkpt lat="49.767" lon="2.30616">
        <ele>117.3</ele>
        <time>2012-11-18T09:23:47Z</time>
      </trkpt>
      <trkpt lat="49.767" lon="2.30595">
        <ele>117.6</ele>
        <time>2012-11-18T09:23:57Z</time>
      </trkpt>
      <trkpt lat="49.76699" lon="2.30569">
        <ele>118.7</ele>
        <time>2012-11-18T09:24:07Z</time>
      </trkpt>
      <trkpt lat="49.76698" lon="2.30547">
        <ele>122.4</ele>
        <time>2012-11-18T09:24:21Z</time>
      </trkpt>
      <trkpt lat="49.76698" lon="2.30524">
        <ele>122.6</ele>
        <time>2012-11-18T09:24:31Z</time>
      </trkpt>
      <trkpt lat="49.767" lon="2.30501">
        <ele>121</ele>
        <time>2012-11-18T09:24:41Z</time>
      </trkpt>
      <trkpt lat="49.76699" lon="2.3048">
        <ele>117.8</ele>
        <time>2012-11-18T09:24:52Z</time>
      </trkpt>
      <trkpt lat="49.76697" lon="2.30459">
        <ele>121.2</ele>
        <time>2012-11-18T09:25:04Z</time>
      </trkpt>
      <trkpt lat="49.76698" lon="2.30436">
        <ele>124.3</ele>
        <time>2012-11-18T09:25:15Z</time>
      </trkpt>
      <trkpt lat="49.76699" lon="2.30415">
        <ele>123.1</ele>
        <time>2012-11-18T09:25:24Z</time>
      </trkpt>
      <trkpt lat="49.76697" lon="2.30392">
        <ele>117</ele>
        <time>2012-11-18T09:25:35Z</time>
      </trkpt>
      <trkpt lat="49.76687" lon="2.30376">
        <ele>115.4</ele>
        <time>2012-11-18T09:25:44Z</time>
      </trkpt>
      <trkpt lat="49.76676" lon="2.3036">
        <ele>117.4</ele>
        <time>2012-11-18T09:25:53Z</time>
      </trkpt>
      <trkpt lat="49.76665" lon="2.30346">
        <ele>119.7</ele>
        <time>2012-11-18T09:26:03Z</time>
      </trkpt>
      <trkpt lat="49.76653" lon="2.30333">
        <ele>116.8</ele>
        <time>2012-11-18T09:26:12Z</time>
      </trkpt>
      <trkpt lat="49.76641" lon="2.30322">
        <ele>119.3</ele>
        <time>2012-11-18T09:26:23Z</time>
      </trkpt>
      <trkpt lat="49.76629" lon="2.3031">
        <ele>116</ele>
        <time>2012-11-18T09:26:35Z</time>
      </trkpt>
      <trkpt lat="49.76618" lon="2.30298">
        <ele>120.9</ele>
        <time>2012-11-18T09:26:44Z</time>
      </trkpt>
      <trkpt lat="49.76606" lon="2.30286">
        <ele>121.3</ele>
        <time>2012-11-18T09:26:51Z</time>
      </trkpt>
      <trkpt lat="49.76592" lon="2.30287">
        <ele>119.1</ele>
        <time>2012-11-18T09:27:07Z</time>
      </trkpt>
      <trkpt lat="49.76581" lon="2.303">
        <ele>122.8</ele>
        <time>2012-11-18T09:27:20Z</time>
      </trkpt>
      <trkpt lat="49.76569" lon="2.30311">
        <ele>126</ele>
        <time>2012-11-18T09:27:31Z</time>
      </trkpt>
      <trkpt lat="49.76556" lon="2.3032">
        <ele>125.9</ele>
        <time>2012-11-18T09:27:44Z</time>
      </trkpt>
      <trkpt lat="49.76543" lon="2.30326">
        <ele>121.6</ele>
        <time>2012-11-18T09:27:54Z</time>
      </trkpt>
      <trkpt lat="49.76529" lon="2.30333">
        <ele>123</ele>
        <time>2012-11-18T09:28:05Z</time>
      </trkpt>
      <trkpt lat="49.76514" lon="2.30338">
        <ele>126.4</ele>
        <time>2012-11-18T09:28:17Z</time>
      </trkpt>
      <trkpt lat="49.76499" lon="2.3034">
        <ele>127.5</ele>
        <time>2012-11-18T09:28:28Z</time>
      </trkpt>
      <trkpt lat="49.76485" lon="2.30341">
        <ele>123.8</ele>
        <time>2012-11-18T09:28:39Z</time>
      </trkpt>
      <trkpt lat="49.76471" lon="2.30342">
        <ele>122.4</ele>
        <time>2012-11-18T09:28:49Z</time>
      </trkpt>
      <trkpt lat="49.76456" lon="2.30345">
        <ele>126.5</ele>
        <time>2012-11-18T09:29:02Z</time>
      </trkpt>
      <trkpt lat="49.76443" lon="2.30348">
        <ele>124.3</ele>
        <time>2012-11-18T09:29:12Z</time>
      </trkpt>
      <trkpt lat="49.76429" lon="2.30354">
        <ele>120.9</ele>
        <time>2012-11-18T09:29:29Z</time>
      </trkpt>
      <trkpt lat="49.76415" lon="2.30359">
        <ele>123.2</ele>
        <time>2012-11-18T09:29:43Z</time>
      </trkpt>
      <trkpt lat="49.76401" lon="2.30367">
        <ele>122</ele>
        <time>2012-11-18T09:29:54Z</time>
      </trkpt>
      <trkpt lat="49.76388" lon="2.30375">
        <ele>120.9</ele>
        <time>2012-11-18T09:30:04Z</time>
      </trkpt>
      <trkpt lat="49.76372" lon="2.30385">
        <ele>123.3</ele>
        <time>2012-11-18T09:30:14Z</time>
      </trkpt>
      <trkpt lat="49.76357" lon="2.30395">
        <ele>126.8</ele>
        <time>2012-11-18T09:30:27Z</time>
      </trkpt>
      <trkpt lat="49.76344" lon="2.30402">
        <ele>128.3</ele>
        <time>2012-11-18T09:30:39Z</time>
      </trkpt>
      <trkpt lat="49.76332" lon="2.30415">
        <ele>126.7</ele>
        <time>2012-11-18T09:30:55Z</time>
      </trkpt>
      <trkpt lat="49.76319" lon="2.30427">
        <ele>124.9</ele>
        <time>2012-11-18T09:31:06Z</time>
      </trkpt>
      <trkpt lat="49.76306" lon="2.30438">
        <ele>128.1</ele>
        <time>2012-11-18T09:31:18Z</time>
      </trkpt>
      <trkpt lat="49.76293" lon="2.30447">
        <ele>126.6</ele>
        <time>2012-11-18T09:31:29Z</time>
      </trkpt>
      <trkpt lat="49.7628" lon="2.30458">
        <ele>128.4</ele>
        <time>2012-11-18T09:31:39Z</time>
      </trkpt>
      <trkpt lat="49.76266" lon="2.30465">
        <ele>130.4</ele>
        <time>2012-11-18T09:31:50Z</time>
      </trkpt>
      <trkpt lat="49.76253" lon="2.30471">
        <ele>128</ele>
        <time>2012-11-18T09:32:02Z</time>
      </trkpt>
      <trkpt lat="49.76239" lon="2.30475">
        <ele>119.6</ele>
        <time>2012-11-18T09:32:14Z</time>
      </trkpt>
      <trkpt lat="49.76225" lon="2.30481">
        <ele>120.5</ele>
        <time>2012-11-18T09:32:29Z</time>
      </trkpt>
      <trkpt lat="49.76209" lon="2.30479">
        <ele>120.9</ele>
        <time>2012-11-18T09:32:41Z</time>
      </trkpt>
      <trkpt lat="49.76195" lon="2.30474">
        <ele>119.1</ele>
        <time>2012-11-18T09:32:54Z</time>
      </trkpt>
      <trkpt lat="49.76181" lon="2.30467">
        <ele>117.7</ele>
        <time>2012-11-18T09:33:05Z</time>
      </trkpt>
      <trkpt lat="49.76167" lon="2.30464">
        <ele>122.9</ele>
        <time>2012-11-18T09:33:16Z</time>
      </trkpt>
      <trkpt lat="49.76155" lon="2.30456">
        <ele>120.7</ele>
        <time>2012-11-18T09:33:25Z</time>
      </trkpt>
      <trkpt lat="49.76141" lon="2.3045">
        <ele>123.2</ele>
        <time>2012-11-18T09:33:36Z</time>
      </trkpt>
      <trkpt lat="49.76127" lon="2.30444">
        <ele>120.2</ele>
        <time>2012-11-18T09:33:47Z</time>
      </trkpt>
      <trkpt lat="49.76112" lon="2.30438">
        <ele>116.1</ele>
        <time>2012-11-18T09:33:56Z</time>
      </trkpt>
      <trkpt lat="49.76099" lon="2.30431">
        <ele>119.5</ele>
        <time>2012-11-18T09:34:06Z</time>
      </trkpt>
      <trkpt lat="49.76083" lon="2.30421">
        <ele>115</ele>
        <time>2012-11-18T09:34:16Z</time>
      </trkpt>
      <trkpt lat="49.76069" lon="2.30418">
        <ele>118.6</ele>
        <time>2012-11-18T09:34:29Z</time>
      </trkpt>
      <trkpt lat="49.76055" lon="2.30413">
        <ele>123.9</ele>
        <time>2012-11-18T09:34:40Z</time>
      </trkpt>
      <trkpt lat="49.76041" lon="2.30407">
        <ele>121.4</ele>
        <time>2012-11-18T09:34:49Z</time>
      </trkpt>
      <trkpt lat="49.76028" lon="2.30398">
        <ele>118.6</ele>
        <time>2012-11-18T09:35:01Z</time>
      </trkpt>
      <trkpt lat="49.76014" lon="2.30391">
        <ele>121.1</ele>
        <time>2012-11-18T09:35:13Z</time>
      </trkpt>
      <trkpt lat="49.75999" lon="2.30388">
        <ele>119.6</ele>
        <time>2012-11-18T09:35:24Z</time>
      </trkpt>
      <trkpt lat="49.75986" lon="2.30381">
        <ele>117.6</ele>
        <time>2012-11-18T09:35:35Z</time>
      </trkpt>
      <trkpt lat="49.75972" lon="2.30378">
        <ele>121.6</ele>
        <time>2012-11-18T09:35:55Z</time>
      </trkpt>
      <trkpt lat="49.75958" lon="2.30373">
        <ele>120.8</ele>
        <time>2012-11-18T09:36:04Z</time>
      </trkpt>
      <trkpt lat="49.75944" lon="2.30367">
        <ele>119.8</ele>
        <time>2012-11-18T09:36:15Z</time>
      </trkpt>
      <trkpt lat="49.7593" lon="2.30362">
        <ele>118.8</ele>
        <time>2012-11-18T09:36:26Z</time>
      </trkpt>
      <trkpt lat="49.75916" lon="2.30359">
        <ele>123.3</ele>
        <time>2012-11-18T09:36:40Z</time>
      </trkpt>
      <trkpt lat="49.7589" lon="2.30357">
        <ele>122</ele>
        <time>2012-11-18T09:36:56Z</time>
      </trkpt>
      <trkpt lat="49.7589" lon="2.30357">
        <ele>122</ele>
        <time>2012-11-18T09:40:52Z</time>
      </trkpt>
      <trkpt lat="49.75879" lon="2.30357">
        <ele>124.8</ele>
        <time>2012-11-18T09:40:54Z</time>
      </trkpt>
      <trkpt lat="49.75865" lon="2.30356">
        <ele>126.2</ele>
        <time>2012-11-18T09:41:05Z</time>
      </trkpt>
      <trkpt lat="49.75852" lon="2.3035">
        <ele>127.4</ele>
        <time>2012-11-18T09:41:16Z</time>
      </trkpt>
      <trkpt lat="49.75838" lon="2.30345">
        <ele>125.1</ele>
        <time>2012-11-18T09:41:28Z</time>
      </trkpt>
      <trkpt lat="49.75824" lon="2.30343">
        <ele>127.1</ele>
        <time>2012-11-18T09:41:42Z</time>
      </trkpt>
      <trkpt lat="49.7581" lon="2.30339">
        <ele>127.3</ele>
        <time>2012-11-18T09:41:49Z</time>
      </trkpt>
      <trkpt lat="49.75796" lon="2.30335">
        <ele>126.9</ele>
        <time>2012-11-18T09:42:00Z</time>
      </trkpt>
      <trkpt lat="49.75781" lon="2.30333">
        <ele>126.4</ele>
        <time>2012-11-18T09:42:12Z</time>
      </trkpt>
      <trkpt lat="49.75768" lon="2.3033">
        <ele>125.9</ele>
        <time>2012-11-18T09:42:23Z</time>
      </trkpt>
      <trkpt lat="49.75754" lon="2.30329">
        <ele>125.4</ele>
        <time>2012-11-18T09:42:34Z</time>
      </trkpt>
      <trkpt lat="49.7574" lon="2.30323">
        <ele>125</ele>
        <time>2012-11-18T09:42:44Z</time>
      </trkpt>
      <trkpt lat="49.75726" lon="2.30321">
        <ele>124.6</ele>
        <time>2012-11-18T09:42:55Z</time>
      </trkpt>
      <trkpt lat="49.75713" lon="2.30316">
        <ele>123.7</ele>
        <time>2012-11-18T09:43:05Z</time>
      </trkpt>
      <trkpt lat="49.75698" lon="2.30314">
        <ele>121.1</ele>
        <time>2012-11-18T09:43:18Z</time>
      </trkpt>
      <trkpt lat="49.75685" lon="2.30307">
        <ele>120</ele>
        <time>2012-11-18T09:43:29Z</time>
      </trkpt>
      <trkpt lat="49.7567" lon="2.30304">
        <ele>116.4</ele>
        <time>2012-11-18T09:43:39Z</time>
      </trkpt>
      <trkpt lat="49.75656" lon="2.30299">
        <ele>120.4</ele>
        <time>2012-11-18T09:43:50Z</time>
      </trkpt>
      <trkpt lat="49.75643" lon="2.30297">
        <ele>123.7</ele>
        <time>2012-11-18T09:44:02Z</time>
      </trkpt>
      <trkpt lat="49.75627" lon="2.30299">
        <ele>122.6</ele>
        <time>2012-11-18T09:44:13Z</time>
      </trkpt>
      <trkpt lat="49.75614" lon="2.30297">
        <ele>127.6</ele>
        <time>2012-11-18T09:44:24Z</time>
      </trkpt>
      <trkpt lat="49.75599" lon="2.30294">
        <ele>128.4</ele>
        <time>2012-11-18T09:44:35Z</time>
      </trkpt>
      <trkpt lat="49.75585" lon="2.30287">
        <ele>125.2</ele>
        <time>2012-11-18T09:44:47Z</time>
      </trkpt>
      <trkpt lat="49.75571" lon="2.30284">
        <ele>125.7</ele>
        <time>2012-11-18T09:44:58Z</time>
      </trkpt>
      <trkpt lat="49.75557" lon="2.30282">
        <ele>127.3</ele>
        <time>2012-11-18T09:45:08Z</time>
      </trkpt>
      <trkpt lat="49.75545" lon="2.3027">
        <ele>124.8</ele>
        <time>2012-11-18T09:45:20Z</time>
      </trkpt>
      <trkpt lat="49.75528" lon="2.30269">
        <ele>119.4</ele>
        <time>2012-11-18T09:45:33Z</time>
      </trkpt>
      <trkpt lat="49.75513" lon="2.30265">
        <ele>126.5</ele>
        <time>2012-11-18T09:45:46Z</time>
      </trkpt>
      <trkpt lat="49.75499" lon="2.30267">
        <ele>129.7</ele>
        <time>2012-11-18T09:45:57Z</time>
      </trkpt>
      <trkpt lat="49.75486" lon="2.30271">
        <ele>123.7</ele>
        <time>2012-11-18T09:46:08Z</time>
      </trkpt>
      <trkpt lat="49.75472" lon="2.30276">
        <ele>123.4</ele>
        <time>2012-11-18T09:46:18Z</time>
      </trkpt>
      <trkpt lat="49.75458" lon="2.30277">
        <ele>127</ele>
        <time>2012-11-18T09:46:29Z</time>
      </trkpt>
      <trkpt lat="49.75445" lon="2.30278">
        <ele>129.7</ele>
        <time>2012-11-18T09:46:39Z</time>
      </trkpt>
      <trkpt lat="49.7543" lon="2.30283">
        <ele>125.4</ele>
        <time>2012-11-18T09:46:51Z</time>
      </trkpt>
      <trkpt lat="49.75416" lon="2.30286">
        <ele>129.1</ele>
        <time>2012-11-18T09:47:04Z</time>
      </trkpt>
      <trkpt lat="49.75401" lon="2.30284">
        <ele>128.7</ele>
        <time>2012-11-18T09:47:14Z</time>
      </trkpt>
      <trkpt lat="49.75386" lon="2.30286">
        <ele>119.4</ele>
        <time>2012-11-18T09:47:27Z</time>
      </trkpt>
      <trkpt lat="49.75373" lon="2.30292">
        <ele>118.3</ele>
        <time>2012-11-18T09:47:39Z</time>
      </trkpt>
      <trkpt lat="49.75359" lon="2.30295">
        <ele>116.8</ele>
        <time>2012-11-18T09:47:50Z</time>
      </trkpt>
      <trkpt lat="49.75344" lon="2.30296">
        <ele>115</ele>
        <time>2012-11-18T09:48:01Z</time>
      </trkpt>
      <trkpt lat="49.75329" lon="2.30288">
        <ele>118</ele>
        <time>2012-11-18T09:48:19Z</time>
      </trkpt>
      <trkpt lat="49.75317" lon="2.30279">
        <ele>116.9</ele>
        <time>2012-11-18T09:48:30Z</time>
      </trkpt>
      <trkpt lat="49.75306" lon="2.3026">
        <ele>115.7</ele>
        <time>2012-11-18T09:48:42Z</time>
      </trkpt>
      <trkpt lat="49.75297" lon="2.30242">
        <ele>115.9</ele>
        <time>2012-11-18T09:48:56Z</time>
      </trkpt>
      <trkpt lat="49.75284" lon="2.30223">
        <ele>113.7</ele>
        <time>2012-11-18T09:49:08Z</time>
      </trkpt>
      <trkpt lat="49.75276" lon="2.30205">
        <ele>114.6</ele>
        <time>2012-11-18T09:49:22Z</time>
      </trkpt>
      <trkpt lat="49.75268" lon="2.30187">
        <ele>106.8</ele>
        <time>2012-11-18T09:49:30Z</time>
      </trkpt>
      <trkpt lat="49.7526" lon="2.30168">
        <ele>110.8</ele>
        <time>2012-11-18T09:49:45Z</time>
      </trkpt>
      <trkpt lat="49.75254" lon="2.30149">
        <ele>107.8</ele>
        <time>2012-11-18T09:49:57Z</time>
      </trkpt>
      <trkpt lat="49.75246" lon="2.3013">
        <ele>110.6</ele>
        <time>2012-11-18T09:50:09Z</time>
      </trkpt>
      <trkpt lat="49.75238" lon="2.30112">
        <ele>108.7</ele>
        <time>2012-11-18T09:50:19Z</time>
      </trkpt>
      <trkpt lat="49.7523" lon="2.30093">
        <ele>107</ele>
        <time>2012-11-18T09:50:28Z</time>
      </trkpt>
      <trkpt lat="49.75224" lon="2.30075">
        <ele>106</ele>
        <time>2012-11-18T09:50:41Z</time>
      </trkpt>
      <trkpt lat="49.75217" lon="2.30058">
        <ele>109.8</ele>
        <time>2012-11-18T09:50:51Z</time>
      </trkpt>
      <trkpt lat="49.75208" lon="2.30041">
        <ele>112.6</ele>
        <time>2012-11-18T09:50:59Z</time>
      </trkpt>
      <trkpt lat="49.75205" lon="2.30018">
        <ele>112.6</ele>
        <time>2012-11-18T09:51:07Z</time>
      </trkpt>
      <trkpt lat="49.75199" lon="2.29997">
        <ele>105</ele>
        <time>2012-11-18T09:51:20Z</time>
      </trkpt>
      <trkpt lat="49.75191" lon="2.29977">
        <ele>102</ele>
        <time>2012-11-18T09:51:29Z</time>
      </trkpt>
      <trkpt lat="49.75183" lon="2.29958">
        <ele>103.3</ele>
        <time>2012-11-18T09:51:39Z</time>
      </trkpt>
      <trkpt lat="49.75169" lon="2.2995">
        <ele>101.9</ele>
        <time>2012-11-18T09:51:49Z</time>
      </trkpt>
      <trkpt lat="49.75155" lon="2.29957">
        <ele>98.1</ele>
        <time>2012-11-18T09:51:59Z</time>
      </trkpt>
      <trkpt lat="49.75138" lon="2.29966">
        <ele>101.6</ele>
        <time>2012-11-18T09:52:09Z</time>
      </trkpt>
      <trkpt lat="49.75126" lon="2.29974">
        <ele>106</ele>
        <time>2012-11-18T09:52:22Z</time>
      </trkpt>
      <trkpt lat="49.75109" lon="2.29981">
        <ele>104.1</ele>
        <time>2012-11-18T09:52:35Z</time>
      </trkpt>
      <trkpt lat="49.75094" lon="2.29978">
        <ele>92.5</ele>
        <time>2012-11-18T09:52:53Z</time>
      </trkpt>
      <trkpt lat="49.7508" lon="2.29977">
        <ele>88.6</ele>
        <time>2012-11-18T09:53:05Z</time>
      </trkpt>
      <trkpt lat="49.75046" lon="2.29971">
        <ele>100.3</ele>
        <time>2012-11-18T09:53:25Z</time>
      </trkpt>
      <trkpt lat="49.75046" lon="2.29971">
        <ele>100.3</ele>
        <time>2012-11-18T10:10:47Z</time>
      </trkpt>
      <trkpt lat="49.75029" lon="2.29969">
        <ele>107.7</ele>
        <time>2012-11-18T10:10:51Z</time>
      </trkpt>
      <trkpt lat="49.75015" lon="2.2997">
        <ele>104.1</ele>
        <time>2012-11-18T10:11:01Z</time>
      </trkpt>
      <trkpt lat="49.74998" lon="2.29968">
        <ele>101.8</ele>
        <time>2012-11-18T10:11:14Z</time>
      </trkpt>
      <trkpt lat="49.74984" lon="2.29969">
        <ele>97.9</ele>
        <time>2012-11-18T10:11:27Z</time>
      </trkpt>
      <trkpt lat="49.7497" lon="2.29971">
        <ele>100.4</ele>
        <time>2012-11-18T10:11:39Z</time>
      </trkpt>
      <trkpt lat="49.74956" lon="2.29972">
        <ele>97.2</ele>
        <time>2012-11-18T10:11:49Z</time>
      </trkpt>
      <trkpt lat="49.74941" lon="2.29975">
        <ele>96.1</ele>
        <time>2012-11-18T10:11:59Z</time>
      </trkpt>
      <trkpt lat="49.74928" lon="2.29978">
        <ele>94.9</ele>
        <time>2012-11-18T10:12:09Z</time>
      </trkpt>
      <trkpt lat="49.74914" lon="2.29979">
        <ele>95.3</ele>
        <time>2012-11-18T10:12:19Z</time>
      </trkpt>
      <trkpt lat="49.749" lon="2.29977">
        <ele>91.7</ele>
        <time>2012-11-18T10:12:29Z</time>
      </trkpt>
      <trkpt lat="49.74885" lon="2.29972">
        <ele>96.4</ele>
        <time>2012-11-18T10:12:38Z</time>
      </trkpt>
      <trkpt lat="49.74871" lon="2.29966">
        <ele>96.5</ele>
        <time>2012-11-18T10:12:51Z</time>
      </trkpt>
      <trkpt lat="49.74856" lon="2.29957">
        <ele>95</ele>
        <time>2012-11-18T10:13:01Z</time>
      </trkpt>
      <trkpt lat="49.74844" lon="2.29947">
        <ele>93.8</ele>
        <time>2012-11-18T10:13:12Z</time>
      </trkpt>
      <trkpt lat="49.7483" lon="2.2994">
        <ele>94</ele>
        <time>2012-11-18T10:13:22Z</time>
      </trkpt>
      <trkpt lat="49.74817" lon="2.2993">
        <ele>95</ele>
        <time>2012-11-18T10:13:31Z</time>
      </trkpt>
      <trkpt lat="49.74802" lon="2.29921">
        <ele>93.6</ele>
        <time>2012-11-18T10:13:42Z</time>
      </trkpt>
      <trkpt lat="49.74789" lon="2.29916">
        <ele>97.1</ele>
        <time>2012-11-18T10:13:54Z</time>
      </trkpt>
      <trkpt lat="49.74774" lon="2.2991">
        <ele>87.9</ele>
        <time>2012-11-18T10:14:04Z</time>
      </trkpt>
      <trkpt lat="49.7476" lon="2.29907">
        <ele>94.8</ele>
        <time>2012-11-18T10:14:14Z</time>
      </trkpt>
      <trkpt lat="49.74745" lon="2.29908">
        <ele>95.8</ele>
        <time>2012-11-18T10:14:24Z</time>
      </trkpt>
      <trkpt lat="49.74732" lon="2.29913">
        <ele>93.8</ele>
        <time>2012-11-18T10:14:34Z</time>
      </trkpt>
      <trkpt lat="49.74719" lon="2.29922">
        <ele>93.3</ele>
        <time>2012-11-18T10:14:46Z</time>
      </trkpt>
      <trkpt lat="49.74707" lon="2.29934">
        <ele>94.4</ele>
        <time>2012-11-18T10:14:56Z</time>
      </trkpt>
      <trkpt lat="49.74696" lon="2.29948">
        <ele>95.3</ele>
        <time>2012-11-18T10:15:05Z</time>
      </trkpt>
      <trkpt lat="49.74685" lon="2.29962">
        <ele>94.8</ele>
        <time>2012-11-18T10:15:17Z</time>
      </trkpt>
      <trkpt lat="49.74674" lon="2.29976">
        <ele>94.4</ele>
        <time>2012-11-18T10:15:26Z</time>
      </trkpt>
      <trkpt lat="49.74662" lon="2.29989">
        <ele>93</ele>
        <time>2012-11-18T10:15:36Z</time>
      </trkpt>
      <trkpt lat="49.74651" lon="2.30002">
        <ele>87.4</ele>
        <time>2012-11-18T10:15:45Z</time>
      </trkpt>
      <trkpt lat="49.7464" lon="2.30017">
        <ele>87.9</ele>
        <time>2012-11-18T10:15:58Z</time>
      </trkpt>
      <trkpt lat="49.74627" lon="2.30025">
        <ele>85.1</ele>
        <time>2012-11-18T10:16:08Z</time>
      </trkpt>
      <trkpt lat="49.74616" lon="2.30039">
        <ele>87.6</ele>
        <time>2012-11-18T10:16:23Z</time>
      </trkpt>
      <trkpt lat="49.74606" lon="2.30056">
        <ele>90.3</ele>
        <time>2012-11-18T10:16:34Z</time>
      </trkpt>
      <trkpt lat="49.74592" lon="2.3007">
        <ele>85.6</ele>
        <time>2012-11-18T10:16:48Z</time>
      </trkpt>
      <trkpt lat="49.74585" lon="2.30088">
        <ele>83.3</ele>
        <time>2012-11-18T10:17:01Z</time>
      </trkpt>
      <trkpt lat="49.74584" lon="2.30113">
        <ele>83.9</ele>
        <time>2012-11-18T10:17:11Z</time>
      </trkpt>
      <trkpt lat="49.74591" lon="2.30132">
        <ele>85.2</ele>
        <time>2012-11-18T10:17:22Z</time>
      </trkpt>
      <trkpt lat="49.74596" lon="2.30154">
        <ele>83.3</ele>
        <time>2012-11-18T10:17:32Z</time>
      </trkpt>
      <trkpt lat="49.74604" lon="2.30174">
        <ele>88.9</ele>
        <time>2012-11-18T10:17:44Z</time>
      </trkpt>
      <trkpt lat="49.74607" lon="2.30195">
        <ele>90.1</ele>
        <time>2012-11-18T10:17:55Z</time>
      </trkpt>
      <trkpt lat="49.74608" lon="2.30216">
        <ele>86.9</ele>
        <time>2012-11-18T10:18:06Z</time>
      </trkpt>
      <trkpt lat="49.74614" lon="2.30236">
        <ele>83.1</ele>
        <time>2012-11-18T10:18:16Z</time>
      </trkpt>
      <trkpt lat="49.74621" lon="2.30254">
        <ele>81</ele>
        <time>2012-11-18T10:18:30Z</time>
      </trkpt>
      <trkpt lat="49.74626" lon="2.30274">
        <ele>76.3</ele>
        <time>2012-11-18T10:18:40Z</time>
      </trkpt>
      <trkpt lat="49.74631" lon="2.30296">
        <ele>75.6</ele>
        <time>2012-11-18T10:18:52Z</time>
      </trkpt>
      <trkpt lat="49.74635" lon="2.30319">
        <ele>81.6</ele>
        <time>2012-11-18T10:19:04Z</time>
      </trkpt>
      <trkpt lat="49.7464" lon="2.3034">
        <ele>82</ele>
        <time>2012-11-18T10:19:14Z</time>
      </trkpt>
      <trkpt lat="49.74647" lon="2.30359">
        <ele>85.4</ele>
        <time>2012-11-18T10:19:24Z</time>
      </trkpt>
      <trkpt lat="49.74655" lon="2.30376">
        <ele>83.5</ele>
        <time>2012-11-18T10:19:33Z</time>
      </trkpt>
      <trkpt lat="49.74659" lon="2.30397">
        <ele>86.6</ele>
        <time>2012-11-18T10:19:44Z</time>
      </trkpt>
      <trkpt lat="49.74665" lon="2.30417">
        <ele>84.2</ele>
        <time>2012-11-18T10:19:57Z</time>
      </trkpt>
      <trkpt lat="49.74669" lon="2.30439">
        <ele>88.4</ele>
        <time>2012-11-18T10:20:09Z</time>
      </trkpt>
      <trkpt lat="49.74673" lon="2.30462">
        <ele>88.8</ele>
        <time>2012-11-18T10:20:20Z</time>
      </trkpt>
      <trkpt lat="49.74674" lon="2.30484">
        <ele>84.8</ele>
        <time>2012-11-18T10:20:29Z</time>
      </trkpt>
      <trkpt lat="49.74674" lon="2.30506">
        <ele>84.1</ele>
        <time>2012-11-18T10:20:40Z</time>
      </trkpt>
      <trkpt lat="49.74678" lon="2.30528">
        <ele>87.1</ele>
        <time>2012-11-18T10:20:52Z</time>
      </trkpt>
      <trkpt lat="49.74682" lon="2.30548">
        <ele>88.6</ele>
        <time>2012-11-18T10:21:02Z</time>
      </trkpt>
      <trkpt lat="49.74688" lon="2.30569">
        <ele>83</ele>
        <time>2012-11-18T10:21:13Z</time>
      </trkpt>
      <trkpt lat="49.74694" lon="2.30588">
        <ele>78</ele>
        <time>2012-11-18T10:21:24Z</time>
      </trkpt>
      <trkpt lat="49.74699" lon="2.30609">
        <ele>80.8</ele>
        <time>2012-11-18T10:21:37Z</time>
      </trkpt>
      <trkpt lat="49.74703" lon="2.30629">
        <ele>78.5</ele>
        <time>2012-11-18T10:21:47Z</time>
      </trkpt>
      <trkpt lat="49.74709" lon="2.3065">
        <ele>81</ele>
        <time>2012-11-18T10:21:59Z</time>
      </trkpt>
      <trkpt lat="49.74715" lon="2.30671">
        <ele>79.8</ele>
        <time>2012-11-18T10:22:11Z</time>
      </trkpt>
      <trkpt lat="49.74721" lon="2.3069">
        <ele>80.3</ele>
        <time>2012-11-18T10:22:22Z</time>
      </trkpt>
      <trkpt lat="49.74727" lon="2.30712">
        <ele>84.8</ele>
        <time>2012-11-18T10:22:33Z</time>
      </trkpt>
      <trkpt lat="49.74731" lon="2.30732">
        <ele>84.9</ele>
        <time>2012-11-18T10:22:44Z</time>
      </trkpt>
      <trkpt lat="49.74735" lon="2.30753">
        <ele>79.7</ele>
        <time>2012-11-18T10:22:54Z</time>
      </trkpt>
      <trkpt lat="49.74743" lon="2.30771">
        <ele>80.8</ele>
        <time>2012-11-18T10:23:04Z</time>
      </trkpt>
      <trkpt lat="49.74749" lon="2.30791">
        <ele>76.8</ele>
        <time>2012-11-18T10:23:16Z</time>
      </trkpt>
      <trkpt lat="49.74757" lon="2.30811">
        <ele>82.1</ele>
        <time>2012-11-18T10:23:25Z</time>
      </trkpt>
      <trkpt lat="49.74763" lon="2.3083">
        <ele>83.7</ele>
        <time>2012-11-18T10:23:32Z</time>
      </trkpt>
      <trkpt lat="49.7477" lon="2.30849">
        <ele>88.4</ele>
        <time>2012-11-18T10:23:42Z</time>
      </trkpt>
      <trkpt lat="49.74772" lon="2.3087">
        <ele>91.4</ele>
        <time>2012-11-18T10:23:52Z</time>
      </trkpt>
      <trkpt lat="49.74775" lon="2.30893">
        <ele>90.2</ele>
        <time>2012-11-18T10:24:04Z</time>
      </trkpt>
      <trkpt lat="49.74777" lon="2.30915">
        <ele>86</ele>
        <time>2012-11-18T10:24:15Z</time>
      </trkpt>
      <trkpt lat="49.74777" lon="2.30937">
        <ele>87.5</ele>
        <time>2012-11-18T10:24:26Z</time>
      </trkpt>
      <trkpt lat="49.74777" lon="2.30951">
        <ele>81.9</ele>
        <time>2012-11-18T10:24:35Z</time>
      </trkpt>
      <trkpt lat="49.7478" lon="2.30971">
        <ele>82.5</ele>
        <time>2012-11-18T10:24:48Z</time>
      </trkpt>
      <trkpt lat="49.74785" lon="2.30994">
        <ele>71.3</ele>
        <time>2012-11-18T10:25:02Z</time>
      </trkpt>
      <trkpt lat="49.74787" lon="2.31022">
        <ele>73.7</ele>
        <time>2012-11-18T10:25:13Z</time>
      </trkpt>
      <trkpt lat="49.74791" lon="2.31042">
        <ele>76.1</ele>
        <time>2012-11-18T10:25:21Z</time>
      </trkpt>
      <trkpt lat="49.7479" lon="2.31065">
        <ele>72.8</ele>
        <time>2012-11-18T10:25:36Z</time>
      </trkpt>
      <trkpt lat="49.7479" lon="2.31088">
        <ele>77</ele>
        <time>2012-11-18T10:25:43Z</time>
      </trkpt>
      <trkpt lat="49.74792" lon="2.3111">
        <ele>82.4</ele>
        <time>2012-11-18T10:25:55Z</time>
      </trkpt>
      <trkpt lat="49.74794" lon="2.31132">
        <ele>85.5</ele>
        <time>2012-11-18T10:26:02Z</time>
      </trkpt>
      <trkpt lat="49.74801" lon="2.31151">
        <ele>82.6</ele>
        <time>2012-11-18T10:26:15Z</time>
      </trkpt>
      <trkpt lat="49.74804" lon="2.31174">
        <ele>79</ele>
        <time>2012-11-18T10:26:23Z</time>
      </trkpt>
      <trkpt lat="49.74805" lon="2.31197">
        <ele>77.2</ele>
        <time>2012-11-18T10:26:32Z</time>
      </trkpt>
      <trkpt lat="49.74808" lon="2.31218">
        <ele>79.9</ele>
        <time>2012-11-18T10:26:41Z</time>
      </trkpt>
      <trkpt lat="49.7481" lon="2.31239">
        <ele>82.3</ele>
        <time>2012-11-18T10:26:49Z</time>
      </trkpt>
      <trkpt lat="49.74812" lon="2.31261">
        <ele>85.9</ele>
        <time>2012-11-18T10:26:59Z</time>
      </trkpt>
      <trkpt lat="49.74813" lon="2.31282">
        <ele>87.1</ele>
        <time>2012-11-18T10:27:10Z</time>
      </trkpt>
      <trkpt lat="49.74812" lon="2.31308">
        <ele>88.1</ele>
        <time>2012-11-18T10:27:20Z</time>
      </trkpt>
      <trkpt lat="49.7481" lon="2.3133">
        <ele>89.3</ele>
        <time>2012-11-18T10:27:32Z</time>
      </trkpt>
      <trkpt lat="49.74807" lon="2.31351">
        <ele>85.2</ele>
        <time>2012-11-18T10:27:44Z</time>
      </trkpt>
      <trkpt lat="49.74802" lon="2.31372">
        <ele>88.9</ele>
        <time>2012-11-18T10:27:54Z</time>
      </trkpt>
      <trkpt lat="49.748" lon="2.31392">
        <ele>92.4</ele>
        <time>2012-11-18T10:28:06Z</time>
      </trkpt>
      <trkpt lat="49.74796" lon="2.31419">
        <ele>86.9</ele>
        <time>2012-11-18T10:28:14Z</time>
      </trkpt>
      <trkpt lat="49.74791" lon="2.31441">
        <ele>82.2</ele>
        <time>2012-11-18T10:28:30Z</time>
      </trkpt>
      <trkpt lat="49.74787" lon="2.31462">
        <ele>78.4</ele>
        <time>2012-11-18T10:28:42Z</time>
      </trkpt>
      <trkpt lat="49.74784" lon="2.31485">
        <ele>79.8</ele>
        <time>2012-11-18T10:28:53Z</time>
      </trkpt>
      <trkpt lat="49.74782" lon="2.31507">
        <ele>76.2</ele>
        <time>2012-11-18T10:29:04Z</time>
      </trkpt>
      <trkpt lat="49.74785" lon="2.31529">
        <ele>77</ele>
        <time>2012-11-18T10:29:18Z</time>
      </trkpt>
      <trkpt lat="49.74787" lon="2.31551">
        <ele>79.3</ele>
        <time>2012-11-18T10:29:27Z</time>
      </trkpt>
      <trkpt lat="49.7479" lon="2.31571">
        <ele>81</ele>
        <time>2012-11-18T10:29:33Z</time>
      </trkpt>
      <trkpt lat="49.74795" lon="2.31593">
        <ele>84.4</ele>
        <time>2012-11-18T10:29:43Z</time>
      </trkpt>
      <trkpt lat="49.74799" lon="2.31614">
        <ele>87.4</ele>
        <time>2012-11-18T10:29:53Z</time>
      </trkpt>
      <trkpt lat="49.74803" lon="2.31638">
        <ele>89.5</ele>
        <time>2012-11-18T10:30:02Z</time>
      </trkpt>
      <trkpt lat="49.74802" lon="2.31659">
        <ele>91</ele>
        <time>2012-11-18T10:30:13Z</time>
      </trkpt>
      <trkpt lat="49.74805" lon="2.31684">
        <ele>88.6</ele>
        <time>2012-11-18T10:30:23Z</time>
      </trkpt>
      <trkpt lat="49.74809" lon="2.31706">
        <ele>85.4</ele>
        <time>2012-11-18T10:30:36Z</time>
      </trkpt>
      <trkpt lat="49.74813" lon="2.31726">
        <ele>86.4</ele>
        <time>2012-11-18T10:30:46Z</time>
      </trkpt>
      <trkpt lat="49.74817" lon="2.31746">
        <ele>88.1</ele>
        <time>2012-11-18T10:30:56Z</time>
      </trkpt>
      <trkpt lat="49.74824" lon="2.31771">
        <ele>85.6</ele>
        <time>2012-11-18T10:31:07Z</time>
      </trkpt>
      <trkpt lat="49.7483" lon="2.3179">
        <ele>86.7</ele>
        <time>2012-11-18T10:31:18Z</time>
      </trkpt>
      <trkpt lat="49.74834" lon="2.31812">
        <ele>85.2</ele>
        <time>2012-11-18T10:31:28Z</time>
      </trkpt>
      <trkpt lat="49.74837" lon="2.31834">
        <ele>83.7</ele>
        <time>2012-11-18T10:31:38Z</time>
      </trkpt>
      <trkpt lat="49.74838" lon="2.31856">
        <ele>81.8</ele>
        <time>2012-11-18T10:31:50Z</time>
      </trkpt>
      <trkpt lat="49.74841" lon="2.31878">
        <ele>80.1</ele>
        <time>2012-11-18T10:32:01Z</time>
      </trkpt>
      <trkpt lat="49.74838" lon="2.31899">
        <ele>80.9</ele>
        <time>2012-11-18T10:32:09Z</time>
      </trkpt>
      <trkpt lat="49.74836" lon="2.3192">
        <ele>83.3</ele>
        <time>2012-11-18T10:32:18Z</time>
      </trkpt>
      <trkpt lat="49.74835" lon="2.31942">
        <ele>82.1</ele>
        <time>2012-11-18T10:32:29Z</time>
      </trkpt>
      <trkpt lat="49.74834" lon="2.31965">
        <ele>80.6</ele>
        <time>2012-11-18T10:32:40Z</time>
      </trkpt>
      <trkpt lat="49.74833" lon="2.31988">
        <ele>75.3</ele>
        <time>2012-11-18T10:32:51Z</time>
      </trkpt>
      <trkpt lat="49.74833" lon="2.32009">
        <ele>76.3</ele>
        <time>2012-11-18T10:32:59Z</time>
      </trkpt>
      <trkpt lat="49.74833" lon="2.32031">
        <ele>77.6</ele>
        <time>2012-11-18T10:33:09Z</time>
      </trkpt>
      <trkpt lat="49.74833" lon="2.32052">
        <ele>78.8</ele>
        <time>2012-11-18T10:33:18Z</time>
      </trkpt>
      <trkpt lat="49.74831" lon="2.32073">
        <ele>75.9</ele>
        <time>2012-11-18T10:33:30Z</time>
      </trkpt>
      <trkpt lat="49.74827" lon="2.32095">
        <ele>71.9</ele>
        <time>2012-11-18T10:33:40Z</time>
      </trkpt>
      <trkpt lat="49.74825" lon="2.32117">
        <ele>73.8</ele>
        <time>2012-11-18T10:33:53Z</time>
      </trkpt>
      <trkpt lat="49.74828" lon="2.32137">
        <ele>78.3</ele>
        <time>2012-11-18T10:34:05Z</time>
      </trkpt>
      <trkpt lat="49.74832" lon="2.32158">
        <ele>82.3</ele>
        <time>2012-11-18T10:34:14Z</time>
      </trkpt>
      <trkpt lat="49.74836" lon="2.32181">
        <ele>83.5</ele>
        <time>2012-11-18T10:34:28Z</time>
      </trkpt>
      <trkpt lat="49.74836" lon="2.32203">
        <ele>77.5</ele>
        <time>2012-11-18T10:34:37Z</time>
      </trkpt>
      <trkpt lat="49.74837" lon="2.32228">
        <ele>78.8</ele>
        <time>2012-11-18T10:34:46Z</time>
      </trkpt>
      <trkpt lat="49.74836" lon="2.3225">
        <ele>78.8</ele>
        <time>2012-11-18T10:34:57Z</time>
      </trkpt>
      <trkpt lat="49.74834" lon="2.32278">
        <ele>84.7</ele>
        <time>2012-11-18T10:35:09Z</time>
      </trkpt>
      <trkpt lat="49.74834" lon="2.323">
        <ele>85.9</ele>
        <time>2012-11-18T10:35:21Z</time>
      </trkpt>
      <trkpt lat="49.7483" lon="2.3232">
        <ele>85.9</ele>
        <time>2012-11-18T10:35:30Z</time>
      </trkpt>
      <trkpt lat="49.74827" lon="2.32342">
        <ele>87.8</ele>
        <time>2012-11-18T10:35:41Z</time>
      </trkpt>
      <trkpt lat="49.74824" lon="2.32363">
        <ele>83.7</ele>
        <time>2012-11-18T10:35:52Z</time>
      </trkpt>
      <trkpt lat="49.74818" lon="2.32384">
        <ele>87.6</ele>
        <time>2012-11-18T10:36:04Z</time>
      </trkpt>
      <trkpt lat="49.74812" lon="2.32404">
        <ele>84.6</ele>
        <time>2012-11-18T10:36:13Z</time>
      </trkpt>
      <trkpt lat="49.74801" lon="2.32418">
        <ele>88.7</ele>
        <time>2012-11-18T10:36:24Z</time>
      </trkpt>
      <trkpt lat="49.74788" lon="2.3244">
        <ele>92</ele>
        <time>2012-11-18T10:36:36Z</time>
      </trkpt>
      <trkpt lat="49.74781" lon="2.32459">
        <ele>95.3</ele>
        <time>2012-11-18T10:36:48Z</time>
      </trkpt>
      <trkpt lat="49.74772" lon="2.32476">
        <ele>96</ele>
        <time>2012-11-18T10:36:56Z</time>
      </trkpt>
      <trkpt lat="49.74759" lon="2.32493">
        <ele>95.5</ele>
        <time>2012-11-18T10:37:08Z</time>
      </trkpt>
      <trkpt lat="49.7475" lon="2.3251">
        <ele>95</ele>
        <time>2012-11-18T10:37:19Z</time>
      </trkpt>
      <trkpt lat="49.74743" lon="2.3253">
        <ele>93.3</ele>
        <time>2012-11-18T10:37:30Z</time>
      </trkpt>
      <trkpt lat="49.74735" lon="2.32549">
        <ele>91.5</ele>
        <time>2012-11-18T10:37:41Z</time>
      </trkpt>
      <trkpt lat="49.74727" lon="2.32568">
        <ele>89.8</ele>
        <time>2012-11-18T10:37:51Z</time>
      </trkpt>
      <trkpt lat="49.74722" lon="2.32589">
        <ele>95.2</ele>
        <time>2012-11-18T10:38:02Z</time>
      </trkpt>
      <trkpt lat="49.74716" lon="2.32609">
        <ele>98.9</ele>
        <time>2012-11-18T10:38:13Z</time>
      </trkpt>
      <trkpt lat="49.74711" lon="2.32629">
        <ele>99.9</ele>
        <time>2012-11-18T10:38:23Z</time>
      </trkpt>
      <trkpt lat="49.74706" lon="2.3265">
        <ele>101</ele>
        <time>2012-11-18T10:38:34Z</time>
      </trkpt>
      <trkpt lat="49.74701" lon="2.3267">
        <ele>99.5</ele>
        <time>2012-11-18T10:38:45Z</time>
      </trkpt>
      <trkpt lat="49.74696" lon="2.32691">
        <ele>97.1</ele>
        <time>2012-11-18T10:38:55Z</time>
      </trkpt>
      <trkpt lat="49.74693" lon="2.32713">
        <ele>98.7</ele>
        <time>2012-11-18T10:39:04Z</time>
      </trkpt>
      <trkpt lat="49.7469" lon="2.32735">
        <ele>98.7</ele>
        <time>2012-11-18T10:39:15Z</time>
      </trkpt>
      <trkpt lat="49.74684" lon="2.32754">
        <ele>94.2</ele>
        <time>2012-11-18T10:39:24Z</time>
      </trkpt>
      <trkpt lat="49.74677" lon="2.32798">
        <ele>95</ele>
        <time>2012-11-18T10:39:37Z</time>
      </trkpt>
      <trkpt lat="49.74677" lon="2.32798">
        <ele>95</ele>
        <time>2012-11-18T10:48:21Z</time>
      </trkpt>
      <trkpt lat="49.74674" lon="2.32821">
        <ele>93.5</ele>
        <time>2012-11-18T10:48:24Z</time>
      </trkpt>
      <trkpt lat="49.74669" lon="2.32847">
        <ele>90.2</ele>
        <time>2012-11-18T10:48:40Z</time>
      </trkpt>
      <trkpt lat="49.74668" lon="2.32869">
        <ele>92.1</ele>
        <time>2012-11-18T10:48:51Z</time>
      </trkpt>
      <trkpt lat="49.74667" lon="2.32891">
        <ele>93.1</ele>
        <time>2012-11-18T10:49:02Z</time>
      </trkpt>
      <trkpt lat="49.74665" lon="2.32913">
        <ele>94.3</ele>
        <time>2012-11-18T10:49:14Z</time>
      </trkpt>
      <trkpt lat="49.74662" lon="2.32935">
        <ele>88</ele>
        <time>2012-11-18T10:49:24Z</time>
      </trkpt>
      <trkpt lat="49.74658" lon="2.32956">
        <ele>87.5</ele>
        <time>2012-11-18T10:49:35Z</time>
      </trkpt>
      <trkpt lat="49.74654" lon="2.3298">
        <ele>87.1</ele>
        <time>2012-11-18T10:49:45Z</time>
      </trkpt>
      <trkpt lat="49.74651" lon="2.33001">
        <ele>86.7</ele>
        <time>2012-11-18T10:49:56Z</time>
      </trkpt>
      <trkpt lat="49.74648" lon="2.33021">
        <ele>86.4</ele>
        <time>2012-11-18T10:50:05Z</time>
      </trkpt>
      <trkpt lat="49.74645" lon="2.33042">
        <ele>86</ele>
        <time>2012-11-18T10:50:14Z</time>
      </trkpt>
      <trkpt lat="49.74641" lon="2.33064">
        <ele>85.5</ele>
        <time>2012-11-18T10:50:28Z</time>
      </trkpt>
      <trkpt lat="49.74639" lon="2.33085">
        <ele>85</ele>
        <time>2012-11-18T10:50:40Z</time>
      </trkpt>
      <trkpt lat="49.74634" lon="2.33106">
        <ele>82.6</ele>
        <time>2012-11-18T10:50:52Z</time>
      </trkpt>
      <trkpt lat="49.74632" lon="2.33129">
        <ele>89.2</ele>
        <time>2012-11-18T10:51:00Z</time>
      </trkpt>
      <trkpt lat="49.74632" lon="2.33151">
        <ele>87.3</ele>
        <time>2012-11-18T10:51:10Z</time>
      </trkpt>
      <trkpt lat="49.74633" lon="2.33172">
        <ele>86.7</ele>
        <time>2012-11-18T10:51:21Z</time>
      </trkpt>
      <trkpt lat="49.74633" lon="2.33193">
        <ele>89</ele>
        <time>2012-11-18T10:51:41Z</time>
      </trkpt>
      <trkpt lat="49.74634" lon="2.33215">
        <ele>88.5</ele>
        <time>2012-11-18T10:51:56Z</time>
      </trkpt>
      <trkpt lat="49.74636" lon="2.33238">
        <ele>90.4</ele>
        <time>2012-11-18T10:52:08Z</time>
      </trkpt>
      <trkpt lat="49.74638" lon="2.33258">
        <ele>89.7</ele>
        <time>2012-11-18T10:52:19Z</time>
      </trkpt>
      <trkpt lat="49.74639" lon="2.33279">
        <ele>85.4</ele>
        <time>2012-11-18T10:52:31Z</time>
      </trkpt>
      <trkpt lat="49.74641" lon="2.33301">
        <ele>88.8</ele>
        <time>2012-11-18T10:52:43Z</time>
      </trkpt>
      <trkpt lat="49.74647" lon="2.33322">
        <ele>90.1</ele>
        <time>2012-11-18T10:52:58Z</time>
      </trkpt>
      <trkpt lat="49.74647" lon="2.33343">
        <ele>85.8</ele>
        <time>2012-11-18T10:53:15Z</time>
      </trkpt>
      <trkpt lat="49.74651" lon="2.33363">
        <ele>86.9</ele>
        <time>2012-11-18T10:53:24Z</time>
      </trkpt>
      <trkpt lat="49.7465" lon="2.33385">
        <ele>87</ele>
        <time>2012-11-18T10:53:38Z</time>
      </trkpt>
      <trkpt lat="49.7465" lon="2.33406">
        <ele>88.3</ele>
        <time>2012-11-18T10:53:50Z</time>
      </trkpt>
      <trkpt lat="49.74653" lon="2.33428">
        <ele>81.3</ele>
        <time>2012-11-18T10:54:05Z</time>
      </trkpt>
      <trkpt lat="49.74654" lon="2.3345">
        <ele>76.4</ele>
        <time>2012-11-18T10:54:13Z</time>
      </trkpt>
      <trkpt lat="49.7466" lon="2.3347">
        <ele>79.7</ele>
        <time>2012-11-18T10:54:19Z</time>
      </trkpt>
      <trkpt lat="49.74662" lon="2.33491">
        <ele>83.5</ele>
        <time>2012-11-18T10:54:29Z</time>
      </trkpt>
      <trkpt lat="49.74663" lon="2.33513">
        <ele>86</ele>
        <time>2012-11-18T10:54:39Z</time>
      </trkpt>
      <trkpt lat="49.74665" lon="2.33535">
        <ele>81.4</ele>
        <time>2012-11-18T10:54:51Z</time>
      </trkpt>
      <trkpt lat="49.74666" lon="2.33556">
        <ele>81.7</ele>
        <time>2012-11-18T10:55:00Z</time>
      </trkpt>
      <trkpt lat="49.74666" lon="2.33581">
        <ele>87</ele>
        <time>2012-11-18T10:55:10Z</time>
      </trkpt>
      <trkpt lat="49.74667" lon="2.33603">
        <ele>89</ele>
        <time>2012-11-18T10:55:20Z</time>
      </trkpt>
      <trkpt lat="49.74669" lon="2.33626">
        <ele>84.7</ele>
        <time>2012-11-18T10:55:32Z</time>
      </trkpt>
      <trkpt lat="49.74673" lon="2.33646">
        <ele>85.5</ele>
        <time>2012-11-18T10:55:40Z</time>
      </trkpt>
      <trkpt lat="49.74678" lon="2.3367">
        <ele>86.4</ele>
        <time>2012-11-18T10:55:50Z</time>
      </trkpt>
      <trkpt lat="49.74678" lon="2.33691">
        <ele>87.4</ele>
        <time>2012-11-18T10:56:00Z</time>
      </trkpt>
      <trkpt lat="49.74681" lon="2.33713">
        <ele>88.4</ele>
        <time>2012-11-18T10:56:10Z</time>
      </trkpt>
      <trkpt lat="49.74683" lon="2.33733">
        <ele>89.3</ele>
        <time>2012-11-18T10:56:19Z</time>
      </trkpt>
      <trkpt lat="49.74685" lon="2.33755">
        <ele>90.4</ele>
        <time>2012-11-18T10:56:30Z</time>
      </trkpt>
      <trkpt lat="49.7469" lon="2.33781">
        <ele>91.3</ele>
        <time>2012-11-18T10:56:40Z</time>
      </trkpt>
      <trkpt lat="49.74693" lon="2.33802">
        <ele>92.5</ele>
        <time>2012-11-18T10:56:52Z</time>
      </trkpt>
      <trkpt lat="49.74697" lon="2.33826">
        <ele>84.1</ele>
        <time>2012-11-18T10:57:01Z</time>
      </trkpt>
      <trkpt lat="49.74698" lon="2.33847">
        <ele>86.4</ele>
        <time>2012-11-18T10:57:11Z</time>
      </trkpt>
      <trkpt lat="49.74701" lon="2.3387">
        <ele>88.2</ele>
        <time>2012-11-18T10:57:21Z</time>
      </trkpt>
      <trkpt lat="49.74704" lon="2.33891">
        <ele>84.9</ele>
        <time>2012-11-18T10:57:32Z</time>
      </trkpt>
      <trkpt lat="49.74705" lon="2.33919">
        <ele>83.4</ele>
        <time>2012-11-18T10:57:41Z</time>
      </trkpt>
      <trkpt lat="49.74705" lon="2.33941">
        <ele>82.4</ele>
        <time>2012-11-18T10:57:53Z</time>
      </trkpt>
      <trkpt lat="49.74705" lon="2.33963">
        <ele>85.9</ele>
        <time>2012-11-18T10:58:03Z</time>
      </trkpt>
      <trkpt lat="49.74703" lon="2.33987">
        <ele>76.7</ele>
        <time>2012-11-18T10:58:15Z</time>
      </trkpt>
      <trkpt lat="49.747" lon="2.34009">
        <ele>76.6</ele>
        <time>2012-11-18T10:58:26Z</time>
      </trkpt>
      <trkpt lat="49.74696" lon="2.34029">
        <ele>76.4</ele>
        <time>2012-11-18T10:58:38Z</time>
      </trkpt>
      <trkpt lat="49.74691" lon="2.34051">
        <ele>73.3</ele>
        <time>2012-11-18T10:58:47Z</time>
      </trkpt>
      <trkpt lat="49.74688" lon="2.34072">
        <ele>74.7</ele>
        <time>2012-11-18T10:58:55Z</time>
      </trkpt>
      <trkpt lat="49.74686" lon="2.34093">
        <ele>76.2</ele>
        <time>2012-11-18T10:59:06Z</time>
      </trkpt>
      <trkpt lat="49.74678" lon="2.34119">
        <ele>76.7</ele>
        <time>2012-11-18T10:59:16Z</time>
      </trkpt>
      <trkpt lat="49.74673" lon="2.3414">
        <ele>73.2</ele>
        <time>2012-11-18T10:59:31Z</time>
      </trkpt>
      <trkpt lat="49.74668" lon="2.3416">
        <ele>70.7</ele>
        <time>2012-11-18T10:59:42Z</time>
      </trkpt>
      <trkpt lat="49.7466" lon="2.3418">
        <ele>73.1</ele>
        <time>2012-11-18T10:59:53Z</time>
      </trkpt>
      <trkpt lat="49.74655" lon="2.342">
        <ele>72.8</ele>
        <time>2012-11-18T11:00:03Z</time>
      </trkpt>
      <trkpt lat="49.74647" lon="2.34219">
        <ele>74</ele>
        <time>2012-11-18T11:00:14Z</time>
      </trkpt>
      <trkpt lat="49.74641" lon="2.34241">
        <ele>74.9</ele>
        <time>2012-11-18T11:00:22Z</time>
      </trkpt>
      <trkpt lat="49.74635" lon="2.34264">
        <ele>74.4</ele>
        <time>2012-11-18T11:00:35Z</time>
      </trkpt>
      <trkpt lat="49.74629" lon="2.34283">
        <ele>70.5</ele>
        <time>2012-11-18T11:00:48Z</time>
      </trkpt>
      <trkpt lat="49.74627" lon="2.34305">
        <ele>70.3</ele>
        <time>2012-11-18T11:00:58Z</time>
      </trkpt>
      <trkpt lat="49.74624" lon="2.34326">
        <ele>71.9</ele>
        <time>2012-11-18T11:01:06Z</time>
      </trkpt>
      <trkpt lat="49.74621" lon="2.34348">
        <ele>72.5</ele>
        <time>2012-11-18T11:01:17Z</time>
      </trkpt>
      <trkpt lat="49.74621" lon="2.3437">
        <ele>69.9</ele>
        <time>2012-11-18T11:01:28Z</time>
      </trkpt>
      <trkpt lat="49.7462" lon="2.34393">
        <ele>65.6</ele>
        <time>2012-11-18T11:01:40Z</time>
      </trkpt>
      <trkpt lat="49.74618" lon="2.34413">
        <ele>67.5</ele>
        <time>2012-11-18T11:01:49Z</time>
      </trkpt>
      <trkpt lat="49.74618" lon="2.34435">
        <ele>69.1</ele>
        <time>2012-11-18T11:01:58Z</time>
      </trkpt>
      <trkpt lat="49.74615" lon="2.34458">
        <ele>63.1</ele>
        <time>2012-11-18T11:02:09Z</time>
      </trkpt>
      <trkpt lat="49.74614" lon="2.3448">
        <ele>63.6</ele>
        <time>2012-11-18T11:02:19Z</time>
      </trkpt>
      <trkpt lat="49.74616" lon="2.34503">
        <ele>62.2</ele>
        <time>2012-11-18T11:02:31Z</time>
      </trkpt>
      <trkpt lat="49.74616" lon="2.34525">
        <ele>60.4</ele>
        <time>2012-11-18T11:02:42Z</time>
      </trkpt>
      <trkpt lat="49.74618" lon="2.34546">
        <ele>65.1</ele>
        <time>2012-11-18T11:02:52Z</time>
      </trkpt>
      <trkpt lat="49.74617" lon="2.3457">
        <ele>62</ele>
        <time>2012-11-18T11:03:05Z</time>
      </trkpt>
      <trkpt lat="49.7462" lon="2.34591">
        <ele>60</ele>
        <time>2012-11-18T11:03:14Z</time>
      </trkpt>
      <trkpt lat="49.7462" lon="2.34612">
        <ele>56.2</ele>
        <time>2012-11-18T11:03:22Z</time>
      </trkpt>
      <trkpt lat="49.74615" lon="2.34633">
        <ele>59.8</ele>
        <time>2012-11-18T11:03:34Z</time>
      </trkpt>
      <trkpt lat="49.74608" lon="2.34652">
        <ele>55.4</ele>
        <time>2012-11-18T11:03:53Z</time>
      </trkpt>
      <trkpt lat="49.74605" lon="2.34673">
        <ele>59.2</ele>
        <time>2012-11-18T11:04:01Z</time>
      </trkpt>
      <trkpt lat="49.74603" lon="2.34695">
        <ele>61</ele>
        <time>2012-11-18T11:04:05Z</time>
      </trkpt>
      <trkpt lat="49.74599" lon="2.34715">
        <ele>65.5</ele>
        <time>2012-11-18T11:04:15Z</time>
      </trkpt>
      <trkpt lat="49.7459" lon="2.34738">
        <ele>62.2</ele>
        <time>2012-11-18T11:04:28Z</time>
      </trkpt>
      <trkpt lat="49.74584" lon="2.3476">
        <ele>63.8</ele>
        <time>2012-11-18T11:04:46Z</time>
      </trkpt>
      <trkpt lat="49.74576" lon="2.34778">
        <ele>59.9</ele>
        <time>2012-11-18T11:04:58Z</time>
      </trkpt>
      <trkpt lat="49.74569" lon="2.348">
        <ele>61.7</ele>
        <time>2012-11-18T11:05:11Z</time>
      </trkpt>
      <trkpt lat="49.74561" lon="2.34821">
        <ele>62.8</ele>
        <time>2012-11-18T11:05:23Z</time>
      </trkpt>
      <trkpt lat="49.74555" lon="2.34847">
        <ele>60.5</ele>
        <time>2012-11-18T11:05:36Z</time>
      </trkpt>
      <trkpt lat="49.74548" lon="2.34866">
        <ele>57.4</ele>
        <time>2012-11-18T11:05:46Z</time>
      </trkpt>
      <trkpt lat="49.74549" lon="2.34924">
        <ele>51.6</ele>
        <time>2012-11-18T11:06:13Z</time>
      </trkpt>
      <trkpt lat="49.74549" lon="2.34924">
        <ele>51.6</ele>
        <time>2012-11-18T11:10:31Z</time>
      </trkpt>
      <trkpt lat="49.74557" lon="2.3496">
        <ele>37.7</ele>
        <time>2012-11-18T11:10:44Z</time>
      </trkpt>
      <trkpt lat="49.74569" lon="2.3497">
        <ele>40.8</ele>
        <time>2012-11-18T11:10:54Z</time>
      </trkpt>
      <trkpt lat="49.74578" lon="2.34984">
        <ele>42.1</ele>
        <time>2012-11-18T11:11:09Z</time>
      </trkpt>
      <trkpt lat="49.74585" lon="2.35003">
        <ele>45.4</ele>
        <time>2012-11-18T11:11:18Z</time>
      </trkpt>
      <trkpt lat="49.74599" lon="2.35013">
        <ele>48.7</ele>
        <time>2012-11-18T11:11:27Z</time>
      </trkpt>
      <trkpt lat="49.74612" lon="2.35029">
        <ele>50.6</ele>
        <time>2012-11-18T11:11:40Z</time>
      </trkpt>
      <trkpt lat="49.74624" lon="2.35043">
        <ele>47</ele>
        <time>2012-11-18T11:12:04Z</time>
      </trkpt>
      <trkpt lat="49.74639" lon="2.35051">
        <ele>47.7</ele>
        <time>2012-11-18T11:12:07Z</time>
      </trkpt>
      <trkpt lat="49.74653" lon="2.35059">
        <ele>46.3</ele>
        <time>2012-11-18T11:12:14Z</time>
      </trkpt>
      <trkpt lat="49.74657" lon="2.35079">
        <ele>46.9</ele>
        <time>2012-11-18T11:12:20Z</time>
      </trkpt>
      <trkpt lat="49.74658" lon="2.35102">
        <ele>50.6</ele>
        <time>2012-11-18T11:12:36Z</time>
      </trkpt>
      <trkpt lat="49.74651" lon="2.35122">
        <ele>46.1</ele>
        <time>2012-11-18T11:12:47Z</time>
      </trkpt>
      <trkpt lat="49.74645" lon="2.35143">
        <ele>47.6</ele>
        <time>2012-11-18T11:12:53Z</time>
      </trkpt>
      <trkpt lat="49.74644" lon="2.35165">
        <ele>52</ele>
        <time>2012-11-18T11:13:06Z</time>
      </trkpt>
      <trkpt lat="49.74638" lon="2.35185">
        <ele>45.7</ele>
        <time>2012-11-18T11:13:15Z</time>
      </trkpt>
      <trkpt lat="49.7463" lon="2.35217">
        <ele>51.1</ele>
        <time>2012-11-18T11:13:28Z</time>
      </trkpt>
      <trkpt lat="49.74629" lon="2.35225">
        <ele>48.5</ele>
        <time>2012-11-18T11:13:34Z</time>
      </trkpt>
      <trkpt lat="49.74633" lon="2.3524">
        <ele>50.4</ele>
        <time>2012-11-18T11:13:38Z</time>
      </trkpt>
      <trkpt lat="49.74625" lon="2.35264">
        <ele>49.4</ele>
        <time>2012-11-18T11:14:03Z</time>
      </trkpt>
      <trkpt lat="49.74623" lon="2.35272">
        <ele>49</ele>
        <time>2012-11-18T11:14:05Z</time>
      </trkpt>
      <trkpt lat="49.74618" lon="2.3531">
        <ele>53.8</ele>
        <time>2012-11-18T11:14:25Z</time>
      </trkpt>
      <trkpt lat="49.74618" lon="2.3531">
        <ele>53.8</ele>
        <time>2012-11-18T11:15:01Z</time>
      </trkpt>
      <trkpt lat="49.74597" lon="2.35317">
        <ele>40.1</ele>
        <time>2012-11-18T11:15:08Z</time>
      </trkpt>
      <trkpt lat="49.74597" lon="2.35317">
        <ele>40.1</ele>
        <time>2012-11-18T11:20:59Z</time>
      </trkpt>
      <trkpt lat="49.74584" lon="2.35309">
        <ele>36.7</ele>
        <time>2012-11-18T11:21:02Z</time>
      </trkpt>
      <trkpt lat="49.74584" lon="2.35309">
        <ele>36.7</ele>
        <time>2012-11-18T11:26:19Z</time>
      </trkpt>
      <trkpt lat="49.74588" lon="2.3531">
        <ele>37</ele>
        <time>2012-11-18T11:26:46Z</time>
      </trkpt>
      <trkpt lat="49.74588" lon="2.3531">
        <ele>37</ele>
        <time>2012-11-18T11:30:52Z</time>
      </trkpt>
      <trkpt lat="49.74572" lon="2.35334">
        <ele>30.9</ele>
        <time>2012-11-18T11:31:14Z</time>
      </trkpt>
      <trkpt lat="49.74572" lon="2.35334">
        <ele>30.9</ele>
        <time>2012-11-18T11:37:12Z</time>
      </trkpt>
      <trkpt lat="49.7455" lon="2.35355">
        <ele>33.8</ele>
        <time>2012-11-18T11:37:13Z</time>
      </trkpt>
      <trkpt lat="49.74566" lon="2.35332">
        <ele>20.7</ele>
        <time>2012-11-18T11:37:35Z</time>
      </trkpt>
      <trkpt lat="49.74566" lon="2.35332">
        <ele>20.7</ele>
        <time>2012-11-18T11:43:44Z</time>
      </trkpt>
      <trkpt lat="49.74567" lon="2.35325">
        <ele>27.8</ele>
        <time>2012-11-18T11:43:59Z</time>
      </trkpt>
      <trkpt lat="49.74567" lon="2.35325">
        <ele>27.8</ele>
        <time>2012-11-18T11:48:23Z</time>
      </trkpt>
      <trkpt lat="49.7458" lon="2.35353">
        <ele>46.1</ele>
        <time>2012-11-18T11:48:54Z</time>
      </trkpt>
      <trkpt lat="49.7458" lon="2.35353">
        <ele>46.1</ele>
        <time>2012-11-18T11:54:26Z</time>
      </trkpt>
      <trkpt lat="49.74594" lon="2.35375">
        <ele>50.1</ele>
        <time>2012-11-18T11:54:36Z</time>
      </trkpt>
      <trkpt lat="49.74578" lon="2.35356">
        <ele>50</ele>
        <time>2012-11-18T11:54:51Z</time>
      </trkpt>
      <trkpt lat="49.74555" lon="2.3535">
        <ele>46.1</ele>
        <time>2012-11-18T11:55:23Z</time>
      </trkpt>
      <trkpt lat="49.74569" lon="2.35333">
        <ele>56.5</ele>
        <time>2012-11-18T11:56:09Z</time>
      </trkpt>
      <trkpt lat="49.74569" lon="2.35333">
        <ele>56.5</ele>
        <time>2012-11-18T12:00:21Z</time>
      </trkpt>
      <trkpt lat="49.74574" lon="2.35325">
        <ele>64.8</ele>
        <time>2012-11-18T12:00:21Z</time>
      </trkpt>
      <trkpt lat="49.74574" lon="2.35349">
        <ele>53.2</ele>
        <time>2012-11-18T12:00:36Z</time>
      </trkpt>
      <trkpt lat="49.74574" lon="2.35349">
        <ele>53.2</ele>
        <time>2012-11-18T12:01:07Z</time>
      </trkpt>
      <trkpt lat="49.74579" lon="2.35349">
        <ele>46</ele>
        <time>2012-11-18T12:01:10Z</time>
      </trkpt>
      <trkpt lat="49.74601" lon="2.35333">
        <ele>45.5</ele>
        <time>2012-11-18T12:01:43Z</time>
      </trkpt>
      <trkpt lat="49.74601" lon="2.35333">
        <ele>45.5</ele>
        <time>2012-11-18T12:05:16Z</time>
      </trkpt>
      <trkpt lat="49.74613" lon="2.35332">
        <ele>48.3</ele>
        <time>2012-11-18T12:05:19Z</time>
      </trkpt>
    </trkseg>
  </trk>
</gpx>